<?xml version="1.0" encoding="UTF-8" standalone="no" ?>
<gpx xmlns="http://www.topografix.com/GPX/1/1" xmlns:xsi="http://www.w3.org/2001/XMLSchema-instance" xsi:schemaLocation="http://www.topografix.com/GPX/1/1 http://www.topografix.com/GPX/1/1/gpx.xsd" version="1.1" creator="VisuGPX - https://www.visugpx.com">
  <metadata>
    <name>Saint Jacques d\'Ambur</name>
    <desc><![CDATA[belle balade]]></desc>
  </metadata>
  <wpt lat="45.90622" lon="2.75693">
    <ele>507</ele>
    <name><![CDATA[départ]]></name>
    <desc><![CDATA[Route]]></desc>
    <cmt><![CDATA[Route]]></cmt>
  </wpt>
  <trk>
    <name><![CDATA[St jacques d'Ambur MGEN 25032015]]></name>
    <trkseg>
      <trkpt lat="45.90622" lon="2.75686">
        <ele>494.7</ele>
        <time>2015-03-25T08:51:06Z</time>
      </trkpt>
      <trkpt lat="45.90621" lon="2.75687">
        <ele>494.8</ele>
        <time>2015-03-25T08:51:22Z</time>
      </trkpt>
      <trkpt lat="45.9062" lon="2.75688">
        <ele>494.33</ele>
        <time>2015-03-25T08:51:36Z</time>
      </trkpt>
      <trkpt lat="45.90619" lon="2.75692">
        <ele>494.35</ele>
        <time>2015-03-25T08:51:54Z</time>
      </trkpt>
      <trkpt lat="45.90606" lon="2.75699">
        <ele>495.36</ele>
        <time>2015-03-25T08:52:11Z</time>
      </trkpt>
      <trkpt lat="45.90603" lon="2.75699">
        <ele>496.36</ele>
        <time>2015-03-25T08:52:17Z</time>
      </trkpt>
      <trkpt lat="45.90598" lon="2.75687">
        <ele>496.21</ele>
        <time>2015-03-25T08:52:32Z</time>
      </trkpt>
      <trkpt lat="45.90606" lon="2.75679">
        <ele>496.51</ele>
        <time>2015-03-25T08:52:47Z</time>
      </trkpt>
      <trkpt lat="45.90611" lon="2.75674">
        <ele>497.24</ele>
        <time>2015-03-25T08:53:05Z</time>
      </trkpt>
      <trkpt lat="45.90616" lon="2.7567">
        <ele>497.33</ele>
        <time>2015-03-25T08:53:14Z</time>
      </trkpt>
      <trkpt lat="45.9063" lon="2.75662">
        <ele>497.91</ele>
        <time>2015-03-25T08:53:30Z</time>
      </trkpt>
      <trkpt lat="45.90644" lon="2.75653">
        <ele>497.08</ele>
        <time>2015-03-25T08:53:44Z</time>
      </trkpt>
      <trkpt lat="45.90659" lon="2.75634">
        <ele>497.3</ele>
        <time>2015-03-25T08:54:01Z</time>
      </trkpt>
      <trkpt lat="45.90671" lon="2.75612">
        <ele>497.87</ele>
        <time>2015-03-25T08:54:21Z</time>
      </trkpt>
      <trkpt lat="45.90671" lon="2.75613">
        <ele>497.75</ele>
        <time>2015-03-25T08:54:36Z</time>
      </trkpt>
      <trkpt lat="45.9067" lon="2.75612">
        <ele>497.26</ele>
        <time>2015-03-25T08:54:54Z</time>
      </trkpt>
      <trkpt lat="45.9067" lon="2.75611">
        <ele>497.75</ele>
        <time>2015-03-25T08:55:21Z</time>
      </trkpt>
      <trkpt lat="45.90673" lon="2.75607">
        <ele>497.9</ele>
        <time>2015-03-25T08:55:37Z</time>
      </trkpt>
      <trkpt lat="45.9068" lon="2.75605">
        <ele>497.16</ele>
        <time>2015-03-25T08:55:49Z</time>
      </trkpt>
      <trkpt lat="45.90697" lon="2.75597">
        <ele>495.66</ele>
        <time>2015-03-25T08:56:06Z</time>
      </trkpt>
      <trkpt lat="45.90716" lon="2.75565">
        <ele>495.02</ele>
        <time>2015-03-25T08:56:31Z</time>
      </trkpt>
      <trkpt lat="45.90721" lon="2.75537">
        <ele>494.65</ele>
        <time>2015-03-25T08:56:49Z</time>
      </trkpt>
      <trkpt lat="45.9072" lon="2.7551">
        <ele>496.25</ele>
        <time>2015-03-25T08:57:07Z</time>
      </trkpt>
      <trkpt lat="45.90722" lon="2.75498">
        <ele>496.65</ele>
        <time>2015-03-25T08:57:18Z</time>
      </trkpt>
      <trkpt lat="45.90727" lon="2.75495">
        <ele>496.29</ele>
        <time>2015-03-25T08:57:23Z</time>
      </trkpt>
      <trkpt lat="45.90744" lon="2.75468">
        <ele>495.39</ele>
        <time>2015-03-25T08:57:44Z</time>
      </trkpt>
      <trkpt lat="45.9076" lon="2.75446">
        <ele>494.63</ele>
        <time>2015-03-25T08:58:04Z</time>
      </trkpt>
      <trkpt lat="45.9078" lon="2.75427">
        <ele>494.51</ele>
        <time>2015-03-25T08:58:26Z</time>
      </trkpt>
      <trkpt lat="45.90798" lon="2.75407">
        <ele>495.32</ele>
        <time>2015-03-25T08:58:46Z</time>
      </trkpt>
      <trkpt lat="45.90817" lon="2.75384">
        <ele>495.14</ele>
        <time>2015-03-25T08:59:07Z</time>
      </trkpt>
      <trkpt lat="45.90835" lon="2.75365">
        <ele>496.63</ele>
        <time>2015-03-25T08:59:27Z</time>
      </trkpt>
      <trkpt lat="45.90855" lon="2.75354">
        <ele>496.38</ele>
        <time>2015-03-25T08:59:46Z</time>
      </trkpt>
      <trkpt lat="45.90873" lon="2.75337">
        <ele>496.67</ele>
        <time>2015-03-25T09:00:05Z</time>
      </trkpt>
      <trkpt lat="45.90888" lon="2.75324">
        <ele>496.86</ele>
        <time>2015-03-25T09:00:19Z</time>
      </trkpt>
      <trkpt lat="45.909" lon="2.75308">
        <ele>496.84</ele>
        <time>2015-03-25T09:00:35Z</time>
      </trkpt>
      <trkpt lat="45.90912" lon="2.75286">
        <ele>495.82</ele>
        <time>2015-03-25T09:00:55Z</time>
      </trkpt>
      <trkpt lat="45.90913" lon="2.75282">
        <ele>496.54</ele>
        <time>2015-03-25T09:00:58Z</time>
      </trkpt>
      <trkpt lat="45.9091" lon="2.75272">
        <ele>499.64</ele>
        <time>2015-03-25T09:01:13Z</time>
      </trkpt>
      <trkpt lat="45.90901" lon="2.7526">
        <ele>502.1</ele>
        <time>2015-03-25T09:01:31Z</time>
      </trkpt>
      <trkpt lat="45.90892" lon="2.75249">
        <ele>505.11</ele>
        <time>2015-03-25T09:01:48Z</time>
      </trkpt>
      <trkpt lat="45.90881" lon="2.75235">
        <ele>506.34</ele>
        <time>2015-03-25T09:02:05Z</time>
      </trkpt>
      <trkpt lat="45.90871" lon="2.75222">
        <ele>507.71</ele>
        <time>2015-03-25T09:02:23Z</time>
      </trkpt>
      <trkpt lat="45.90865" lon="2.75204">
        <ele>510.88</ele>
        <time>2015-03-25T09:02:43Z</time>
      </trkpt>
      <trkpt lat="45.90858" lon="2.75182">
        <ele>513.01</ele>
        <time>2015-03-25T09:03:01Z</time>
      </trkpt>
      <trkpt lat="45.90853" lon="2.75159">
        <ele>515.74</ele>
        <time>2015-03-25T09:03:21Z</time>
      </trkpt>
      <trkpt lat="45.90847" lon="2.75138">
        <ele>518.95</ele>
        <time>2015-03-25T09:03:39Z</time>
      </trkpt>
      <trkpt lat="45.90843" lon="2.75109">
        <ele>521.16</ele>
        <time>2015-03-25T09:03:59Z</time>
      </trkpt>
      <trkpt lat="45.90841" lon="2.75098">
        <ele>521.91</ele>
        <time>2015-03-25T09:04:06Z</time>
      </trkpt>
      <trkpt lat="45.90837" lon="2.75069">
        <ele>522.79</ele>
        <time>2015-03-25T09:04:23Z</time>
      </trkpt>
      <trkpt lat="45.90831" lon="2.75047">
        <ele>523.58</ele>
        <time>2015-03-25T09:04:41Z</time>
      </trkpt>
      <trkpt lat="45.90823" lon="2.75039">
        <ele>524.53</ele>
        <time>2015-03-25T09:04:53Z</time>
      </trkpt>
      <trkpt lat="45.90814" lon="2.7502">
        <ele>524.33</ele>
        <time>2015-03-25T09:05:11Z</time>
      </trkpt>
      <trkpt lat="45.90808" lon="2.74997">
        <ele>522.27</ele>
        <time>2015-03-25T09:05:28Z</time>
      </trkpt>
      <trkpt lat="45.90799" lon="2.74976">
        <ele>520.2</ele>
        <time>2015-03-25T09:05:46Z</time>
      </trkpt>
      <trkpt lat="45.90789" lon="2.7496">
        <ele>518.8</ele>
        <time>2015-03-25T09:06:02Z</time>
      </trkpt>
      <trkpt lat="45.9077" lon="2.74938">
        <ele>517.04</ele>
        <time>2015-03-25T09:06:25Z</time>
      </trkpt>
      <trkpt lat="45.90751" lon="2.74919">
        <ele>514.97</ele>
        <time>2015-03-25T09:06:45Z</time>
      </trkpt>
      <trkpt lat="45.90736" lon="2.74906">
        <ele>514.22</ele>
        <time>2015-03-25T09:07:03Z</time>
      </trkpt>
      <trkpt lat="45.90718" lon="2.74892">
        <ele>513.94</ele>
        <time>2015-03-25T09:07:23Z</time>
      </trkpt>
      <trkpt lat="45.90699" lon="2.7488">
        <ele>512.66</ele>
        <time>2015-03-25T09:07:43Z</time>
      </trkpt>
      <trkpt lat="45.90686" lon="2.74869">
        <ele>510.53</ele>
        <time>2015-03-25T09:08:00Z</time>
      </trkpt>
      <trkpt lat="45.90668" lon="2.7485">
        <ele>507.27</ele>
        <time>2015-03-25T09:08:22Z</time>
      </trkpt>
      <trkpt lat="45.90645" lon="2.74836">
        <ele>504.86</ele>
        <time>2015-03-25T09:08:46Z</time>
      </trkpt>
      <trkpt lat="45.90629" lon="2.74828">
        <ele>502.98</ele>
        <time>2015-03-25T09:09:03Z</time>
      </trkpt>
      <trkpt lat="45.90609" lon="2.74812">
        <ele>501.82</ele>
        <time>2015-03-25T09:09:22Z</time>
      </trkpt>
      <trkpt lat="45.90597" lon="2.74806">
        <ele>500.75</ele>
        <time>2015-03-25T09:09:34Z</time>
      </trkpt>
      <trkpt lat="45.90581" lon="2.74796">
        <ele>497.19</ele>
        <time>2015-03-25T09:09:53Z</time>
      </trkpt>
      <trkpt lat="45.90563" lon="2.74777">
        <ele>496.7</ele>
        <time>2015-03-25T09:10:14Z</time>
      </trkpt>
      <trkpt lat="45.9054" lon="2.74761">
        <ele>496.44</ele>
        <time>2015-03-25T09:10:36Z</time>
      </trkpt>
      <trkpt lat="45.90519" lon="2.74752">
        <ele>496.43</ele>
        <time>2015-03-25T09:10:55Z</time>
      </trkpt>
      <trkpt lat="45.90499" lon="2.74736">
        <ele>498.38</ele>
        <time>2015-03-25T09:11:13Z</time>
      </trkpt>
      <trkpt lat="45.90474" lon="2.74728">
        <ele>500.72</ele>
        <time>2015-03-25T09:11:35Z</time>
      </trkpt>
      <trkpt lat="45.90454" lon="2.74723">
        <ele>503.79</ele>
        <time>2015-03-25T09:11:53Z</time>
      </trkpt>
      <trkpt lat="45.90439" lon="2.74719">
        <ele>507.05</ele>
        <time>2015-03-25T09:12:09Z</time>
      </trkpt>
      <trkpt lat="45.90425" lon="2.74715">
        <ele>509.5</ele>
        <time>2015-03-25T09:12:30Z</time>
      </trkpt>
      <trkpt lat="45.90415" lon="2.74715">
        <ele>512.73</ele>
        <time>2015-03-25T09:12:42Z</time>
      </trkpt>
      <trkpt lat="45.90401" lon="2.74721">
        <ele>515.5</ele>
        <time>2015-03-25T09:13:02Z</time>
      </trkpt>
      <trkpt lat="45.90384" lon="2.7473">
        <ele>518.37</ele>
        <time>2015-03-25T09:13:25Z</time>
      </trkpt>
      <trkpt lat="45.90367" lon="2.74733">
        <ele>520.38</ele>
        <time>2015-03-25T09:13:43Z</time>
      </trkpt>
      <trkpt lat="45.9035" lon="2.74733">
        <ele>522.01</ele>
        <time>2015-03-25T09:14:03Z</time>
      </trkpt>
      <trkpt lat="45.90335" lon="2.74735">
        <ele>522.89</ele>
        <time>2015-03-25T09:14:20Z</time>
      </trkpt>
      <trkpt lat="45.90316" lon="2.74723">
        <ele>523.99</ele>
        <time>2015-03-25T09:14:40Z</time>
      </trkpt>
      <trkpt lat="45.90301" lon="2.74719">
        <ele>527.11</ele>
        <time>2015-03-25T09:14:59Z</time>
      </trkpt>
      <trkpt lat="45.90281" lon="2.74712">
        <ele>529.05</ele>
        <time>2015-03-25T09:15:21Z</time>
      </trkpt>
      <trkpt lat="45.90262" lon="2.74709">
        <ele>530.9</ele>
        <time>2015-03-25T09:15:41Z</time>
      </trkpt>
      <trkpt lat="45.90245" lon="2.74706">
        <ele>531.6</ele>
        <time>2015-03-25T09:15:59Z</time>
      </trkpt>
      <trkpt lat="45.90221" lon="2.74709">
        <ele>533.16</ele>
        <time>2015-03-25T09:16:21Z</time>
      </trkpt>
      <trkpt lat="45.90197" lon="2.74702">
        <ele>535.73</ele>
        <time>2015-03-25T09:16:40Z</time>
      </trkpt>
      <trkpt lat="45.90179" lon="2.7471">
        <ele>537.81</ele>
        <time>2015-03-25T09:16:57Z</time>
      </trkpt>
      <trkpt lat="45.90161" lon="2.74713">
        <ele>537.8</ele>
        <time>2015-03-25T09:17:16Z</time>
      </trkpt>
      <trkpt lat="45.90143" lon="2.74715">
        <ele>537.94</ele>
        <time>2015-03-25T09:17:34Z</time>
      </trkpt>
      <trkpt lat="45.90123" lon="2.74724">
        <ele>537.2</ele>
        <time>2015-03-25T09:17:52Z</time>
      </trkpt>
      <trkpt lat="45.90106" lon="2.74731">
        <ele>538.12</ele>
        <time>2015-03-25T09:18:07Z</time>
      </trkpt>
      <trkpt lat="45.90085" lon="2.74738">
        <ele>540.7</ele>
        <time>2015-03-25T09:18:26Z</time>
      </trkpt>
      <trkpt lat="45.90068" lon="2.74744">
        <ele>542.2</ele>
        <time>2015-03-25T09:18:43Z</time>
      </trkpt>
      <trkpt lat="45.90051" lon="2.7475">
        <ele>543.9</ele>
        <time>2015-03-25T09:19:01Z</time>
      </trkpt>
      <trkpt lat="45.90037" lon="2.74766">
        <ele>544.46</ele>
        <time>2015-03-25T09:19:19Z</time>
      </trkpt>
      <trkpt lat="45.90019" lon="2.74775">
        <ele>544.22</ele>
        <time>2015-03-25T09:19:38Z</time>
      </trkpt>
      <trkpt lat="45.89999" lon="2.74779">
        <ele>545.41</ele>
        <time>2015-03-25T09:20:00Z</time>
      </trkpt>
      <trkpt lat="45.8998" lon="2.74775">
        <ele>548.62</ele>
        <time>2015-03-25T09:20:19Z</time>
      </trkpt>
      <trkpt lat="45.89957" lon="2.74768">
        <ele>550.14</ele>
        <time>2015-03-25T09:20:38Z</time>
      </trkpt>
      <trkpt lat="45.89938" lon="2.7477">
        <ele>552.45</ele>
        <time>2015-03-25T09:20:58Z</time>
      </trkpt>
      <trkpt lat="45.89929" lon="2.74767">
        <ele>554.74</ele>
        <time>2015-03-25T09:21:08Z</time>
      </trkpt>
      <trkpt lat="45.89923" lon="2.74748">
        <ele>555.11</ele>
        <time>2015-03-25T09:21:24Z</time>
      </trkpt>
      <trkpt lat="45.89924" lon="2.74747">
        <ele>554.97</ele>
        <time>2015-03-25T09:21:25Z</time>
      </trkpt>
      <trkpt lat="45.89928" lon="2.74723">
        <ele>554.97</ele>
        <time>2015-03-25T09:21:40Z</time>
      </trkpt>
      <trkpt lat="45.89931" lon="2.74708">
        <ele>557.52</ele>
        <time>2015-03-25T09:21:55Z</time>
      </trkpt>
      <trkpt lat="45.89929" lon="2.74694">
        <ele>559.41</ele>
        <time>2015-03-25T09:22:06Z</time>
      </trkpt>
      <trkpt lat="45.89927" lon="2.74688">
        <ele>560.05</ele>
        <time>2015-03-25T09:22:12Z</time>
      </trkpt>
      <trkpt lat="45.89918" lon="2.74671">
        <ele>562.44</ele>
        <time>2015-03-25T09:22:30Z</time>
      </trkpt>
      <trkpt lat="45.89901" lon="2.74652">
        <ele>564.36</ele>
        <time>2015-03-25T09:22:47Z</time>
      </trkpt>
      <trkpt lat="45.89897" lon="2.74646">
        <ele>565.46</ele>
        <time>2015-03-25T09:22:52Z</time>
      </trkpt>
      <trkpt lat="45.89882" lon="2.74622">
        <ele>568.69</ele>
        <time>2015-03-25T09:23:11Z</time>
      </trkpt>
      <trkpt lat="45.8987" lon="2.74609">
        <ele>570.44</ele>
        <time>2015-03-25T09:23:27Z</time>
      </trkpt>
      <trkpt lat="45.89869" lon="2.74607">
        <ele>570.72</ele>
        <time>2015-03-25T09:23:49Z</time>
      </trkpt>
      <trkpt lat="45.89869" lon="2.74607">
        <ele>570.56</ele>
        <time>2015-03-25T09:24:13Z</time>
      </trkpt>
      <trkpt lat="45.89864" lon="2.74606">
        <ele>571.11</ele>
        <time>2015-03-25T09:24:35Z</time>
      </trkpt>
      <trkpt lat="45.89849" lon="2.746">
        <ele>573.43</ele>
        <time>2015-03-25T09:24:50Z</time>
      </trkpt>
      <trkpt lat="45.89834" lon="2.74597">
        <ele>575.75</ele>
        <time>2015-03-25T09:25:07Z</time>
      </trkpt>
      <trkpt lat="45.89832" lon="2.74595">
        <ele>576.38</ele>
        <time>2015-03-25T09:25:23Z</time>
      </trkpt>
      <trkpt lat="45.89831" lon="2.74594">
        <ele>577.06</ele>
        <time>2015-03-25T09:25:50Z</time>
      </trkpt>
      <trkpt lat="45.8983" lon="2.74595">
        <ele>577.14</ele>
        <time>2015-03-25T09:26:11Z</time>
      </trkpt>
      <trkpt lat="45.8983" lon="2.74595">
        <ele>576.7</ele>
        <time>2015-03-25T09:26:37Z</time>
      </trkpt>
      <trkpt lat="45.89832" lon="2.74594">
        <ele>576.87</ele>
        <time>2015-03-25T09:27:10Z</time>
      </trkpt>
      <trkpt lat="45.89832" lon="2.74594">
        <ele>577.48</ele>
        <time>2015-03-25T09:27:39Z</time>
      </trkpt>
      <trkpt lat="45.89831" lon="2.74592">
        <ele>577.01</ele>
        <time>2015-03-25T09:28:13Z</time>
      </trkpt>
      <trkpt lat="45.8983" lon="2.74592">
        <ele>577.91</ele>
        <time>2015-03-25T09:28:38Z</time>
      </trkpt>
      <trkpt lat="45.8983" lon="2.74593">
        <ele>578.01</ele>
        <time>2015-03-25T09:29:01Z</time>
      </trkpt>
      <trkpt lat="45.8983" lon="2.74594">
        <ele>578.03</ele>
        <time>2015-03-25T09:29:38Z</time>
      </trkpt>
      <trkpt lat="45.8983" lon="2.74594">
        <ele>577.96</ele>
        <time>2015-03-25T09:30:10Z</time>
      </trkpt>
      <trkpt lat="45.89829" lon="2.74589">
        <ele>578.11</ele>
        <time>2015-03-25T09:30:24Z</time>
      </trkpt>
      <trkpt lat="45.89829" lon="2.74589">
        <ele>577.56</ele>
        <time>2015-03-25T09:30:54Z</time>
      </trkpt>
      <trkpt lat="45.89828" lon="2.74588">
        <ele>578.15</ele>
        <time>2015-03-25T09:31:26Z</time>
      </trkpt>
      <trkpt lat="45.89828" lon="2.7459">
        <ele>578.66</ele>
        <time>2015-03-25T09:31:57Z</time>
      </trkpt>
      <trkpt lat="45.89828" lon="2.7459">
        <ele>578.66</ele>
        <time>2015-03-25T09:32:30Z</time>
      </trkpt>
      <trkpt lat="45.89829" lon="2.7459">
        <ele>578.76</ele>
        <time>2015-03-25T09:32:49Z</time>
      </trkpt>
      <trkpt lat="45.89831" lon="2.74593">
        <ele>579.04</ele>
        <time>2015-03-25T09:33:15Z</time>
      </trkpt>
      <trkpt lat="45.89831" lon="2.74593">
        <ele>579.38</ele>
        <time>2015-03-25T09:33:34Z</time>
      </trkpt>
      <trkpt lat="45.8983" lon="2.74593">
        <ele>579.35</ele>
        <time>2015-03-25T09:33:50Z</time>
      </trkpt>
      <trkpt lat="45.89826" lon="2.74586">
        <ele>579.88</ele>
        <time>2015-03-25T09:34:16Z</time>
      </trkpt>
      <trkpt lat="45.89825" lon="2.74581">
        <ele>579.51</ele>
        <time>2015-03-25T09:34:20Z</time>
      </trkpt>
      <trkpt lat="45.89818" lon="2.74545">
        <ele>578.5</ele>
        <time>2015-03-25T09:34:44Z</time>
      </trkpt>
      <trkpt lat="45.89808" lon="2.74515">
        <ele>578.88</ele>
        <time>2015-03-25T09:35:07Z</time>
      </trkpt>
      <trkpt lat="45.89803" lon="2.74503">
        <ele>579.44</ele>
        <time>2015-03-25T09:35:17Z</time>
      </trkpt>
      <trkpt lat="45.89801" lon="2.74491">
        <ele>579.26</ele>
        <time>2015-03-25T09:35:24Z</time>
      </trkpt>
      <trkpt lat="45.89807" lon="2.74466">
        <ele>579.83</ele>
        <time>2015-03-25T09:35:40Z</time>
      </trkpt>
      <trkpt lat="45.89812" lon="2.74452">
        <ele>579.75</ele>
        <time>2015-03-25T09:35:53Z</time>
      </trkpt>
      <trkpt lat="45.89816" lon="2.74422">
        <ele>579.81</ele>
        <time>2015-03-25T09:36:13Z</time>
      </trkpt>
      <trkpt lat="45.89818" lon="2.7441">
        <ele>581.32</ele>
        <time>2015-03-25T09:36:21Z</time>
      </trkpt>
      <trkpt lat="45.89821" lon="2.74398">
        <ele>581.7</ele>
        <time>2015-03-25T09:36:30Z</time>
      </trkpt>
      <trkpt lat="45.89822" lon="2.7439">
        <ele>581.26</ele>
        <time>2015-03-25T09:36:35Z</time>
      </trkpt>
      <trkpt lat="45.89824" lon="2.74387">
        <ele>581.34</ele>
        <time>2015-03-25T09:36:37Z</time>
      </trkpt>
      <trkpt lat="45.89829" lon="2.74358">
        <ele>580.21</ele>
        <time>2015-03-25T09:36:54Z</time>
      </trkpt>
      <trkpt lat="45.89831" lon="2.74345">
        <ele>580.16</ele>
        <time>2015-03-25T09:37:01Z</time>
      </trkpt>
      <trkpt lat="45.89834" lon="2.74329">
        <ele>579.36</ele>
        <time>2015-03-25T09:37:10Z</time>
      </trkpt>
      <trkpt lat="45.89841" lon="2.74302">
        <ele>578.47</ele>
        <time>2015-03-25T09:37:26Z</time>
      </trkpt>
      <trkpt lat="45.89852" lon="2.74273">
        <ele>577.74</ele>
        <time>2015-03-25T09:37:43Z</time>
      </trkpt>
      <trkpt lat="45.89856" lon="2.74263">
        <ele>577</ele>
        <time>2015-03-25T09:37:49Z</time>
      </trkpt>
      <trkpt lat="45.89859" lon="2.74254">
        <ele>576.08</ele>
        <time>2015-03-25T09:37:56Z</time>
      </trkpt>
      <trkpt lat="45.89874" lon="2.74246">
        <ele>574.5</ele>
        <time>2015-03-25T09:38:09Z</time>
      </trkpt>
      <trkpt lat="45.89891" lon="2.74233">
        <ele>571.82</ele>
        <time>2015-03-25T09:38:26Z</time>
      </trkpt>
      <trkpt lat="45.89902" lon="2.74222">
        <ele>569.54</ele>
        <time>2015-03-25T09:38:41Z</time>
      </trkpt>
      <trkpt lat="45.89912" lon="2.74212">
        <ele>568.9</ele>
        <time>2015-03-25T09:38:51Z</time>
      </trkpt>
      <trkpt lat="45.89918" lon="2.74191">
        <ele>569.32</ele>
        <time>2015-03-25T09:39:06Z</time>
      </trkpt>
      <trkpt lat="45.89925" lon="2.74171">
        <ele>570.95</ele>
        <time>2015-03-25T09:39:21Z</time>
      </trkpt>
      <trkpt lat="45.89932" lon="2.74151">
        <ele>572.87</ele>
        <time>2015-03-25T09:39:38Z</time>
      </trkpt>
      <trkpt lat="45.89942" lon="2.74133">
        <ele>573.85</ele>
        <time>2015-03-25T09:39:54Z</time>
      </trkpt>
      <trkpt lat="45.89947" lon="2.74106">
        <ele>574.91</ele>
        <time>2015-03-25T09:40:11Z</time>
      </trkpt>
      <trkpt lat="45.8995" lon="2.74081">
        <ele>576.88</ele>
        <time>2015-03-25T09:40:29Z</time>
      </trkpt>
      <trkpt lat="45.89946" lon="2.74054">
        <ele>577.16</ele>
        <time>2015-03-25T09:40:48Z</time>
      </trkpt>
      <trkpt lat="45.89942" lon="2.7403">
        <ele>578.48</ele>
        <time>2015-03-25T09:41:03Z</time>
      </trkpt>
      <trkpt lat="45.89934" lon="2.7401">
        <ele>580.8</ele>
        <time>2015-03-25T09:41:19Z</time>
      </trkpt>
      <trkpt lat="45.89925" lon="2.73993">
        <ele>583.98</ele>
        <time>2015-03-25T09:41:38Z</time>
      </trkpt>
      <trkpt lat="45.89921" lon="2.73978">
        <ele>585.99</ele>
        <time>2015-03-25T09:41:54Z</time>
      </trkpt>
      <trkpt lat="45.89916" lon="2.73959">
        <ele>588.4</ele>
        <time>2015-03-25T09:42:11Z</time>
      </trkpt>
      <trkpt lat="45.89913" lon="2.73936">
        <ele>590.38</ele>
        <time>2015-03-25T09:42:30Z</time>
      </trkpt>
      <trkpt lat="45.89912" lon="2.73931">
        <ele>591.66</ele>
        <time>2015-03-25T09:42:34Z</time>
      </trkpt>
      <trkpt lat="45.89909" lon="2.73914">
        <ele>592.87</ele>
        <time>2015-03-25T09:42:49Z</time>
      </trkpt>
      <trkpt lat="45.89903" lon="2.73898">
        <ele>595.61</ele>
        <time>2015-03-25T09:43:06Z</time>
      </trkpt>
      <trkpt lat="45.89895" lon="2.73887">
        <ele>597.14</ele>
        <time>2015-03-25T09:43:21Z</time>
      </trkpt>
      <trkpt lat="45.89884" lon="2.73876">
        <ele>599.27</ele>
        <time>2015-03-25T09:43:38Z</time>
      </trkpt>
      <trkpt lat="45.8988" lon="2.73872">
        <ele>599.91</ele>
        <time>2015-03-25T09:43:44Z</time>
      </trkpt>
      <trkpt lat="45.89869" lon="2.73865">
        <ele>602.03</ele>
        <time>2015-03-25T09:43:58Z</time>
      </trkpt>
      <trkpt lat="45.89856" lon="2.73856">
        <ele>604.59</ele>
        <time>2015-03-25T09:44:16Z</time>
      </trkpt>
      <trkpt lat="45.89852" lon="2.7385">
        <ele>606.1</ele>
        <time>2015-03-25T09:44:32Z</time>
      </trkpt>
      <trkpt lat="45.89847" lon="2.73844">
        <ele>605.88</ele>
        <time>2015-03-25T09:44:46Z</time>
      </trkpt>
      <trkpt lat="45.89839" lon="2.73838">
        <ele>606.49</ele>
        <time>2015-03-25T09:45:01Z</time>
      </trkpt>
      <trkpt lat="45.89836" lon="2.73841">
        <ele>607.21</ele>
        <time>2015-03-25T09:45:21Z</time>
      </trkpt>
      <trkpt lat="45.89829" lon="2.73845">
        <ele>607.99</ele>
        <time>2015-03-25T09:45:31Z</time>
      </trkpt>
      <trkpt lat="45.89814" lon="2.73857">
        <ele>609.71</ele>
        <time>2015-03-25T09:45:50Z</time>
      </trkpt>
      <trkpt lat="45.89803" lon="2.73866">
        <ele>611.78</ele>
        <time>2015-03-25T09:46:05Z</time>
      </trkpt>
      <trkpt lat="45.89791" lon="2.73877">
        <ele>613.83</ele>
        <time>2015-03-25T09:46:21Z</time>
      </trkpt>
      <trkpt lat="45.89783" lon="2.7389">
        <ele>615.48</ele>
        <time>2015-03-25T09:46:36Z</time>
      </trkpt>
      <trkpt lat="45.89776" lon="2.73905">
        <ele>617.36</ele>
        <time>2015-03-25T09:46:50Z</time>
      </trkpt>
      <trkpt lat="45.89769" lon="2.7392">
        <ele>618.01</ele>
        <time>2015-03-25T09:47:03Z</time>
      </trkpt>
      <trkpt lat="45.8976" lon="2.73939">
        <ele>618.91</ele>
        <time>2015-03-25T09:47:17Z</time>
      </trkpt>
      <trkpt lat="45.89754" lon="2.73953">
        <ele>620.34</ele>
        <time>2015-03-25T09:47:29Z</time>
      </trkpt>
      <trkpt lat="45.89748" lon="2.7397">
        <ele>621.08</ele>
        <time>2015-03-25T09:47:42Z</time>
      </trkpt>
      <trkpt lat="45.89744" lon="2.73988">
        <ele>621.72</ele>
        <time>2015-03-25T09:47:56Z</time>
      </trkpt>
      <trkpt lat="45.89741" lon="2.74013">
        <ele>621.88</ele>
        <time>2015-03-25T09:48:12Z</time>
      </trkpt>
      <trkpt lat="45.89739" lon="2.74038">
        <ele>623.16</ele>
        <time>2015-03-25T09:48:26Z</time>
      </trkpt>
      <trkpt lat="45.89735" lon="2.74061">
        <ele>622.71</ele>
        <time>2015-03-25T09:48:38Z</time>
      </trkpt>
      <trkpt lat="45.89735" lon="2.74084">
        <ele>622.57</ele>
        <time>2015-03-25T09:48:54Z</time>
      </trkpt>
      <trkpt lat="45.89732" lon="2.74108">
        <ele>623.37</ele>
        <time>2015-03-25T09:49:08Z</time>
      </trkpt>
      <trkpt lat="45.89725" lon="2.74134">
        <ele>623.87</ele>
        <time>2015-03-25T09:49:25Z</time>
      </trkpt>
      <trkpt lat="45.8972" lon="2.74151">
        <ele>624.1</ele>
        <time>2015-03-25T09:49:43Z</time>
      </trkpt>
      <trkpt lat="45.8971" lon="2.74173">
        <ele>625.1</ele>
        <time>2015-03-25T09:50:00Z</time>
      </trkpt>
      <trkpt lat="45.89708" lon="2.74192">
        <ele>626.49</ele>
        <time>2015-03-25T09:50:14Z</time>
      </trkpt>
      <trkpt lat="45.89704" lon="2.74212">
        <ele>628.13</ele>
        <time>2015-03-25T09:50:28Z</time>
      </trkpt>
      <trkpt lat="45.89697" lon="2.74229">
        <ele>629.15</ele>
        <time>2015-03-25T09:50:40Z</time>
      </trkpt>
      <trkpt lat="45.89687" lon="2.74245">
        <ele>629.81</ele>
        <time>2015-03-25T09:50:54Z</time>
      </trkpt>
      <trkpt lat="45.89674" lon="2.74262">
        <ele>632.37</ele>
        <time>2015-03-25T09:51:12Z</time>
      </trkpt>
      <trkpt lat="45.89656" lon="2.74276">
        <ele>634.88</ele>
        <time>2015-03-25T09:51:33Z</time>
      </trkpt>
      <trkpt lat="45.89638" lon="2.74291">
        <ele>637.37</ele>
        <time>2015-03-25T09:51:55Z</time>
      </trkpt>
      <trkpt lat="45.89623" lon="2.743">
        <ele>639.01</ele>
        <time>2015-03-25T09:52:15Z</time>
      </trkpt>
      <trkpt lat="45.89607" lon="2.74321">
        <ele>640.94</ele>
        <time>2015-03-25T09:52:38Z</time>
      </trkpt>
      <trkpt lat="45.89591" lon="2.7434">
        <ele>641.88</ele>
        <time>2015-03-25T09:53:01Z</time>
      </trkpt>
      <trkpt lat="45.89574" lon="2.7435">
        <ele>643.29</ele>
        <time>2015-03-25T09:53:26Z</time>
      </trkpt>
      <trkpt lat="45.89558" lon="2.74361">
        <ele>645.89</ele>
        <time>2015-03-25T09:53:47Z</time>
      </trkpt>
      <trkpt lat="45.89541" lon="2.74375">
        <ele>649.07</ele>
        <time>2015-03-25T09:54:06Z</time>
      </trkpt>
      <trkpt lat="45.89523" lon="2.74392">
        <ele>651.83</ele>
        <time>2015-03-25T09:54:34Z</time>
      </trkpt>
      <trkpt lat="45.8951" lon="2.74431">
        <ele>653.81</ele>
        <time>2015-03-25T09:54:57Z</time>
      </trkpt>
      <trkpt lat="45.89523" lon="2.74451">
        <ele>655.41</ele>
        <time>2015-03-25T09:55:18Z</time>
      </trkpt>
      <trkpt lat="45.89537" lon="2.74459">
        <ele>658.76</ele>
        <time>2015-03-25T09:55:38Z</time>
      </trkpt>
      <trkpt lat="45.89555" lon="2.74473">
        <ele>662.2</ele>
        <time>2015-03-25T09:56:01Z</time>
      </trkpt>
      <trkpt lat="45.89561" lon="2.74479">
        <ele>663.88</ele>
        <time>2015-03-25T09:56:10Z</time>
      </trkpt>
      <trkpt lat="45.89574" lon="2.74499">
        <ele>665.99</ele>
        <time>2015-03-25T09:56:36Z</time>
      </trkpt>
      <trkpt lat="45.89582" lon="2.74514">
        <ele>669.5</ele>
        <time>2015-03-25T09:56:56Z</time>
      </trkpt>
      <trkpt lat="45.89587" lon="2.74536">
        <ele>671.49</ele>
        <time>2015-03-25T09:57:17Z</time>
      </trkpt>
      <trkpt lat="45.89588" lon="2.7454">
        <ele>672.26</ele>
        <time>2015-03-25T09:57:39Z</time>
      </trkpt>
      <trkpt lat="45.8959" lon="2.7454">
        <ele>672.01</ele>
        <time>2015-03-25T09:58:10Z</time>
      </trkpt>
      <trkpt lat="45.89591" lon="2.7454">
        <ele>672.27</ele>
        <time>2015-03-25T09:58:32Z</time>
      </trkpt>
      <trkpt lat="45.8959" lon="2.74543">
        <ele>672.68</ele>
        <time>2015-03-25T09:59:00Z</time>
      </trkpt>
      <trkpt lat="45.89584" lon="2.74553">
        <ele>674.71</ele>
        <time>2015-03-25T09:59:19Z</time>
      </trkpt>
      <trkpt lat="45.89583" lon="2.74553">
        <ele>675.3</ele>
        <time>2015-03-25T09:59:41Z</time>
      </trkpt>
      <trkpt lat="45.89582" lon="2.74554">
        <ele>675.61</ele>
        <time>2015-03-25T10:00:11Z</time>
      </trkpt>
      <trkpt lat="45.89581" lon="2.74555">
        <ele>675.12</ele>
        <time>2015-03-25T10:00:36Z</time>
      </trkpt>
      <trkpt lat="45.89576" lon="2.7455">
        <ele>676.38</ele>
        <time>2015-03-25T10:01:02Z</time>
      </trkpt>
      <trkpt lat="45.89562" lon="2.74544">
        <ele>679.43</ele>
        <time>2015-03-25T10:01:22Z</time>
      </trkpt>
      <trkpt lat="45.89549" lon="2.74535">
        <ele>682.74</ele>
        <time>2015-03-25T10:01:41Z</time>
      </trkpt>
      <trkpt lat="45.89529" lon="2.74533">
        <ele>685.23</ele>
        <time>2015-03-25T10:02:06Z</time>
      </trkpt>
      <trkpt lat="45.89512" lon="2.74545">
        <ele>685.89</ele>
        <time>2015-03-25T10:02:31Z</time>
      </trkpt>
      <trkpt lat="45.89503" lon="2.7455">
        <ele>688.93</ele>
        <time>2015-03-25T10:02:46Z</time>
      </trkpt>
      <trkpt lat="45.89487" lon="2.74566">
        <ele>690.71</ele>
        <time>2015-03-25T10:03:09Z</time>
      </trkpt>
      <trkpt lat="45.89472" lon="2.74585">
        <ele>692.21</ele>
        <time>2015-03-25T10:03:29Z</time>
      </trkpt>
      <trkpt lat="45.89462" lon="2.74609">
        <ele>693.44</ele>
        <time>2015-03-25T10:03:50Z</time>
      </trkpt>
      <trkpt lat="45.89455" lon="2.74629">
        <ele>696.56</ele>
        <time>2015-03-25T10:04:09Z</time>
      </trkpt>
      <trkpt lat="45.89444" lon="2.74648">
        <ele>699.8</ele>
        <time>2015-03-25T10:04:29Z</time>
      </trkpt>
      <trkpt lat="45.89435" lon="2.74667">
        <ele>702.92</ele>
        <time>2015-03-25T10:04:48Z</time>
      </trkpt>
      <trkpt lat="45.89425" lon="2.74685">
        <ele>705.94</ele>
        <time>2015-03-25T10:05:08Z</time>
      </trkpt>
      <trkpt lat="45.89416" lon="2.74687">
        <ele>708.51</ele>
        <time>2015-03-25T10:05:27Z</time>
      </trkpt>
      <trkpt lat="45.89401" lon="2.74697">
        <ele>708.96</ele>
        <time>2015-03-25T10:05:46Z</time>
      </trkpt>
      <trkpt lat="45.89384" lon="2.74706">
        <ele>711.63</ele>
        <time>2015-03-25T10:06:07Z</time>
      </trkpt>
      <trkpt lat="45.89369" lon="2.7472">
        <ele>713.09</ele>
        <time>2015-03-25T10:06:27Z</time>
      </trkpt>
      <trkpt lat="45.89355" lon="2.74731">
        <ele>713.71</ele>
        <time>2015-03-25T10:06:42Z</time>
      </trkpt>
      <trkpt lat="45.89337" lon="2.74741">
        <ele>714.65</ele>
        <time>2015-03-25T10:07:03Z</time>
      </trkpt>
      <trkpt lat="45.89315" lon="2.74737">
        <ele>716.97</ele>
        <time>2015-03-25T10:07:27Z</time>
      </trkpt>
      <trkpt lat="45.89287" lon="2.74739">
        <ele>719.06</ele>
        <time>2015-03-25T10:07:50Z</time>
      </trkpt>
      <trkpt lat="45.89274" lon="2.74743">
        <ele>719.83</ele>
        <time>2015-03-25T10:08:01Z</time>
      </trkpt>
      <trkpt lat="45.89264" lon="2.74745">
        <ele>721.47</ele>
        <time>2015-03-25T10:08:20Z</time>
      </trkpt>
      <trkpt lat="45.89251" lon="2.74751">
        <ele>723.3</ele>
        <time>2015-03-25T10:08:42Z</time>
      </trkpt>
      <trkpt lat="45.89236" lon="2.74758">
        <ele>725.12</ele>
        <time>2015-03-25T10:09:02Z</time>
      </trkpt>
      <trkpt lat="45.89216" lon="2.74761">
        <ele>727.84</ele>
        <time>2015-03-25T10:09:27Z</time>
      </trkpt>
      <trkpt lat="45.89207" lon="2.74764">
        <ele>728.04</ele>
        <time>2015-03-25T10:09:35Z</time>
      </trkpt>
      <trkpt lat="45.89185" lon="2.7479">
        <ele>730.18</ele>
        <time>2015-03-25T10:09:56Z</time>
      </trkpt>
      <trkpt lat="45.89182" lon="2.74801">
        <ele>729.83</ele>
        <time>2015-03-25T10:10:24Z</time>
      </trkpt>
      <trkpt lat="45.89176" lon="2.74805">
        <ele>730.7</ele>
        <time>2015-03-25T10:10:46Z</time>
      </trkpt>
      <trkpt lat="45.8917" lon="2.74815">
        <ele>731.11</ele>
        <time>2015-03-25T10:10:54Z</time>
      </trkpt>
      <trkpt lat="45.89166" lon="2.74831">
        <ele>732.41</ele>
        <time>2015-03-25T10:11:12Z</time>
      </trkpt>
      <trkpt lat="45.89153" lon="2.74857">
        <ele>732.92</ele>
        <time>2015-03-25T10:11:34Z</time>
      </trkpt>
      <trkpt lat="45.89133" lon="2.74891">
        <ele>733.12</ele>
        <time>2015-03-25T10:11:59Z</time>
      </trkpt>
      <trkpt lat="45.8912" lon="2.74913">
        <ele>732.63</ele>
        <time>2015-03-25T10:12:21Z</time>
      </trkpt>
      <trkpt lat="45.8911" lon="2.7493">
        <ele>733.53</ele>
        <time>2015-03-25T10:12:38Z</time>
      </trkpt>
      <trkpt lat="45.89098" lon="2.74969">
        <ele>733.74</ele>
        <time>2015-03-25T10:12:56Z</time>
      </trkpt>
      <trkpt lat="45.89089" lon="2.74983">
        <ele>734.22</ele>
        <time>2015-03-25T10:13:16Z</time>
      </trkpt>
      <trkpt lat="45.89083" lon="2.74982">
        <ele>734.71</ele>
        <time>2015-03-25T10:13:32Z</time>
      </trkpt>
      <trkpt lat="45.89084" lon="2.74985">
        <ele>734.42</ele>
        <time>2015-03-25T10:13:58Z</time>
      </trkpt>
      <trkpt lat="45.89084" lon="2.74984">
        <ele>734.81</ele>
        <time>2015-03-25T10:14:25Z</time>
      </trkpt>
      <trkpt lat="45.89081" lon="2.74998">
        <ele>732.57</ele>
        <time>2015-03-25T10:14:39Z</time>
      </trkpt>
      <trkpt lat="45.89093" lon="2.75032">
        <ele>730.53</ele>
        <time>2015-03-25T10:15:01Z</time>
      </trkpt>
      <trkpt lat="45.89106" lon="2.75082">
        <ele>728.22</ele>
        <time>2015-03-25T10:15:26Z</time>
      </trkpt>
      <trkpt lat="45.89117" lon="2.75114">
        <ele>727.27</ele>
        <time>2015-03-25T10:15:39Z</time>
      </trkpt>
      <trkpt lat="45.89127" lon="2.75143">
        <ele>726.14</ele>
        <time>2015-03-25T10:15:52Z</time>
      </trkpt>
      <trkpt lat="45.89131" lon="2.75159">
        <ele>725.3</ele>
        <time>2015-03-25T10:15:59Z</time>
      </trkpt>
      <trkpt lat="45.89132" lon="2.75171">
        <ele>724.97</ele>
        <time>2015-03-25T10:16:06Z</time>
      </trkpt>
      <trkpt lat="45.89137" lon="2.75178">
        <ele>723.85</ele>
        <time>2015-03-25T10:16:10Z</time>
      </trkpt>
      <trkpt lat="45.89141" lon="2.75205">
        <ele>722.5</ele>
        <time>2015-03-25T10:16:26Z</time>
      </trkpt>
      <trkpt lat="45.89138" lon="2.75248">
        <ele>721.67</ele>
        <time>2015-03-25T10:16:44Z</time>
      </trkpt>
      <trkpt lat="45.89142" lon="2.75279">
        <ele>720.74</ele>
        <time>2015-03-25T10:17:02Z</time>
      </trkpt>
      <trkpt lat="45.89151" lon="2.75315">
        <ele>719.94</ele>
        <time>2015-03-25T10:17:19Z</time>
      </trkpt>
      <trkpt lat="45.89157" lon="2.7535">
        <ele>718.27</ele>
        <time>2015-03-25T10:17:37Z</time>
      </trkpt>
      <trkpt lat="45.89164" lon="2.75385">
        <ele>717.96</ele>
        <time>2015-03-25T10:17:57Z</time>
      </trkpt>
      <trkpt lat="45.89171" lon="2.75416">
        <ele>717.32</ele>
        <time>2015-03-25T10:18:16Z</time>
      </trkpt>
      <trkpt lat="45.89179" lon="2.75448">
        <ele>716.02</ele>
        <time>2015-03-25T10:18:35Z</time>
      </trkpt>
      <trkpt lat="45.89188" lon="2.75482">
        <ele>714.69</ele>
        <time>2015-03-25T10:18:56Z</time>
      </trkpt>
      <trkpt lat="45.89198" lon="2.75514">
        <ele>713.16</ele>
        <time>2015-03-25T10:19:17Z</time>
      </trkpt>
      <trkpt lat="45.89207" lon="2.75544">
        <ele>712.28</ele>
        <time>2015-03-25T10:19:36Z</time>
      </trkpt>
      <trkpt lat="45.89217" lon="2.75576">
        <ele>709.85</ele>
        <time>2015-03-25T10:19:57Z</time>
      </trkpt>
      <trkpt lat="45.89214" lon="2.75604">
        <ele>708.45</ele>
        <time>2015-03-25T10:20:16Z</time>
      </trkpt>
      <trkpt lat="45.89187" lon="2.75618">
        <ele>707.11</ele>
        <time>2015-03-25T10:20:38Z</time>
      </trkpt>
      <trkpt lat="45.89166" lon="2.75628">
        <ele>705.73</ele>
        <time>2015-03-25T10:20:56Z</time>
      </trkpt>
      <trkpt lat="45.89144" lon="2.75638">
        <ele>703.55</ele>
        <time>2015-03-25T10:21:13Z</time>
      </trkpt>
      <trkpt lat="45.89125" lon="2.7565">
        <ele>702.18</ele>
        <time>2015-03-25T10:21:29Z</time>
      </trkpt>
      <trkpt lat="45.89107" lon="2.7567">
        <ele>701.62</ele>
        <time>2015-03-25T10:21:45Z</time>
      </trkpt>
      <trkpt lat="45.89078" lon="2.757">
        <ele>701.19</ele>
        <time>2015-03-25T10:22:10Z</time>
      </trkpt>
      <trkpt lat="45.89056" lon="2.75716">
        <ele>700.53</ele>
        <time>2015-03-25T10:22:30Z</time>
      </trkpt>
      <trkpt lat="45.89049" lon="2.75718">
        <ele>701.01</ele>
        <time>2015-03-25T10:22:35Z</time>
      </trkpt>
      <trkpt lat="45.89031" lon="2.75728">
        <ele>701.58</ele>
        <time>2015-03-25T10:22:50Z</time>
      </trkpt>
      <trkpt lat="45.89025" lon="2.75733">
        <ele>701.6</ele>
        <time>2015-03-25T10:22:56Z</time>
      </trkpt>
      <trkpt lat="45.89006" lon="2.75742">
        <ele>700.14</ele>
        <time>2015-03-25T10:23:12Z</time>
      </trkpt>
      <trkpt lat="45.88989" lon="2.75752">
        <ele>699.04</ele>
        <time>2015-03-25T10:23:25Z</time>
      </trkpt>
      <trkpt lat="45.8897" lon="2.75762">
        <ele>698.11</ele>
        <time>2015-03-25T10:23:40Z</time>
      </trkpt>
      <trkpt lat="45.88964" lon="2.75763">
        <ele>697.98</ele>
        <time>2015-03-25T10:23:44Z</time>
      </trkpt>
      <trkpt lat="45.88955" lon="2.75767">
        <ele>697.83</ele>
        <time>2015-03-25T10:23:50Z</time>
      </trkpt>
      <trkpt lat="45.88931" lon="2.75776">
        <ele>698.13</ele>
        <time>2015-03-25T10:24:05Z</time>
      </trkpt>
      <trkpt lat="45.88909" lon="2.75788">
        <ele>698.88</ele>
        <time>2015-03-25T10:24:21Z</time>
      </trkpt>
      <trkpt lat="45.88901" lon="2.75796">
        <ele>699.35</ele>
        <time>2015-03-25T10:24:27Z</time>
      </trkpt>
      <trkpt lat="45.88891" lon="2.75815">
        <ele>700.52</ele>
        <time>2015-03-25T10:24:41Z</time>
      </trkpt>
      <trkpt lat="45.8889" lon="2.75833">
        <ele>699.71</ele>
        <time>2015-03-25T10:24:54Z</time>
      </trkpt>
      <trkpt lat="45.8889" lon="2.75856">
        <ele>699.11</ele>
        <time>2015-03-25T10:25:11Z</time>
      </trkpt>
      <trkpt lat="45.88896" lon="2.7589">
        <ele>697.61</ele>
        <time>2015-03-25T10:25:28Z</time>
      </trkpt>
      <trkpt lat="45.88906" lon="2.75928">
        <ele>697.33</ele>
        <time>2015-03-25T10:25:47Z</time>
      </trkpt>
      <trkpt lat="45.88909" lon="2.75937">
        <ele>696.67</ele>
        <time>2015-03-25T10:25:52Z</time>
      </trkpt>
      <trkpt lat="45.88918" lon="2.75955">
        <ele>696.7</ele>
        <time>2015-03-25T10:26:02Z</time>
      </trkpt>
      <trkpt lat="45.8892" lon="2.75958">
        <ele>696.49</ele>
        <time>2015-03-25T10:26:04Z</time>
      </trkpt>
      <trkpt lat="45.88933" lon="2.75975">
        <ele>696.33</ele>
        <time>2015-03-25T10:26:19Z</time>
      </trkpt>
      <trkpt lat="45.88938" lon="2.75982">
        <ele>696.46</ele>
        <time>2015-03-25T10:26:27Z</time>
      </trkpt>
      <trkpt lat="45.88947" lon="2.76002">
        <ele>696.09</ele>
        <time>2015-03-25T10:26:42Z</time>
      </trkpt>
      <trkpt lat="45.88952" lon="2.7601">
        <ele>695.64</ele>
        <time>2015-03-25T10:26:48Z</time>
      </trkpt>
      <trkpt lat="45.88952" lon="2.76013">
        <ele>695.22</ele>
        <time>2015-03-25T10:26:50Z</time>
      </trkpt>
      <trkpt lat="45.88954" lon="2.7602">
        <ele>694.96</ele>
        <time>2015-03-25T10:26:54Z</time>
      </trkpt>
      <trkpt lat="45.88967" lon="2.76054">
        <ele>694.16</ele>
        <time>2015-03-25T10:27:16Z</time>
      </trkpt>
      <trkpt lat="45.88979" lon="2.76087">
        <ele>693.1</ele>
        <time>2015-03-25T10:27:36Z</time>
      </trkpt>
      <trkpt lat="45.8899" lon="2.76128">
        <ele>694.2</ele>
        <time>2015-03-25T10:27:59Z</time>
      </trkpt>
      <trkpt lat="45.88999" lon="2.76162">
        <ele>692.51</ele>
        <time>2015-03-25T10:28:20Z</time>
      </trkpt>
      <trkpt lat="45.89005" lon="2.76184">
        <ele>692.06</ele>
        <time>2015-03-25T10:28:35Z</time>
      </trkpt>
      <trkpt lat="45.89012" lon="2.76205">
        <ele>692.22</ele>
        <time>2015-03-25T10:28:49Z</time>
      </trkpt>
      <trkpt lat="45.89019" lon="2.76227">
        <ele>692.11</ele>
        <time>2015-03-25T10:29:03Z</time>
      </trkpt>
      <trkpt lat="45.8902" lon="2.76229">
        <ele>691.9</ele>
        <time>2015-03-25T10:29:04Z</time>
      </trkpt>
      <trkpt lat="45.89028" lon="2.76253">
        <ele>692.14</ele>
        <time>2015-03-25T10:29:17Z</time>
      </trkpt>
      <trkpt lat="45.89028" lon="2.76255">
        <ele>692.27</ele>
        <time>2015-03-25T10:29:18Z</time>
      </trkpt>
      <trkpt lat="45.89035" lon="2.76279">
        <ele>692.24</ele>
        <time>2015-03-25T10:29:32Z</time>
      </trkpt>
      <trkpt lat="45.89042" lon="2.76312">
        <ele>692.71</ele>
        <time>2015-03-25T10:29:48Z</time>
      </trkpt>
      <trkpt lat="45.89047" lon="2.76334">
        <ele>692.07</ele>
        <time>2015-03-25T10:30:02Z</time>
      </trkpt>
      <trkpt lat="45.89051" lon="2.76342">
        <ele>693.33</ele>
        <time>2015-03-25T10:30:07Z</time>
      </trkpt>
      <trkpt lat="45.89054" lon="2.76351">
        <ele>693.42</ele>
        <time>2015-03-25T10:30:12Z</time>
      </trkpt>
      <trkpt lat="45.8906" lon="2.76374">
        <ele>691.94</ele>
        <time>2015-03-25T10:30:28Z</time>
      </trkpt>
      <trkpt lat="45.89061" lon="2.7638">
        <ele>691.83</ele>
        <time>2015-03-25T10:30:31Z</time>
      </trkpt>
      <trkpt lat="45.89069" lon="2.76404">
        <ele>690.45</ele>
        <time>2015-03-25T10:30:47Z</time>
      </trkpt>
      <trkpt lat="45.89075" lon="2.76428">
        <ele>689.28</ele>
        <time>2015-03-25T10:31:04Z</time>
      </trkpt>
      <trkpt lat="45.89077" lon="2.76451">
        <ele>688.3</ele>
        <time>2015-03-25T10:31:18Z</time>
      </trkpt>
      <trkpt lat="45.89074" lon="2.76479">
        <ele>687.33</ele>
        <time>2015-03-25T10:31:33Z</time>
      </trkpt>
      <trkpt lat="45.89071" lon="2.76503">
        <ele>684.45</ele>
        <time>2015-03-25T10:31:47Z</time>
      </trkpt>
      <trkpt lat="45.89064" lon="2.76519">
        <ele>683.06</ele>
        <time>2015-03-25T10:31:58Z</time>
      </trkpt>
      <trkpt lat="45.89061" lon="2.76525">
        <ele>682.08</ele>
        <time>2015-03-25T10:32:02Z</time>
      </trkpt>
      <trkpt lat="45.89058" lon="2.76532">
        <ele>681.4</ele>
        <time>2015-03-25T10:32:06Z</time>
      </trkpt>
      <trkpt lat="45.89049" lon="2.76545">
        <ele>677.99</ele>
        <time>2015-03-25T10:32:18Z</time>
      </trkpt>
      <trkpt lat="45.89042" lon="2.76562">
        <ele>674.84</ele>
        <time>2015-03-25T10:32:32Z</time>
      </trkpt>
      <trkpt lat="45.89038" lon="2.76577">
        <ele>671.64</ele>
        <time>2015-03-25T10:32:43Z</time>
      </trkpt>
      <trkpt lat="45.89036" lon="2.76585">
        <ele>670.88</ele>
        <time>2015-03-25T10:32:47Z</time>
      </trkpt>
      <trkpt lat="45.89036" lon="2.76593">
        <ele>669.59</ele>
        <time>2015-03-25T10:32:50Z</time>
      </trkpt>
      <trkpt lat="45.89031" lon="2.76609">
        <ele>667.44</ele>
        <time>2015-03-25T10:32:59Z</time>
      </trkpt>
      <trkpt lat="45.89028" lon="2.76614">
        <ele>667.14</ele>
        <time>2015-03-25T10:33:01Z</time>
      </trkpt>
      <trkpt lat="45.89014" lon="2.76617">
        <ele>663.62</ele>
        <time>2015-03-25T10:33:15Z</time>
      </trkpt>
      <trkpt lat="45.89012" lon="2.76616">
        <ele>663.79</ele>
        <time>2015-03-25T10:33:17Z</time>
      </trkpt>
      <trkpt lat="45.88998" lon="2.76608">
        <ele>660.78</ele>
        <time>2015-03-25T10:33:29Z</time>
      </trkpt>
      <trkpt lat="45.8899" lon="2.76597">
        <ele>657.1</ele>
        <time>2015-03-25T10:33:39Z</time>
      </trkpt>
      <trkpt lat="45.88978" lon="2.7659">
        <ele>656.59</ele>
        <time>2015-03-25T10:33:51Z</time>
      </trkpt>
      <trkpt lat="45.88976" lon="2.76591">
        <ele>656.58</ele>
        <time>2015-03-25T10:33:52Z</time>
      </trkpt>
      <trkpt lat="45.88957" lon="2.76595">
        <ele>658.53</ele>
        <time>2015-03-25T10:34:13Z</time>
      </trkpt>
      <trkpt lat="45.88955" lon="2.76594">
        <ele>657.11</ele>
        <time>2015-03-25T10:34:20Z</time>
      </trkpt>
      <trkpt lat="45.88953" lon="2.76589">
        <ele>656.46</ele>
        <time>2015-03-25T10:34:30Z</time>
      </trkpt>
      <trkpt lat="45.88959" lon="2.76592">
        <ele>656.81</ele>
        <time>2015-03-25T10:34:50Z</time>
      </trkpt>
      <trkpt lat="45.88956" lon="2.76591">
        <ele>656.39</ele>
        <time>2015-03-25T10:35:05Z</time>
      </trkpt>
      <trkpt lat="45.88939" lon="2.76579">
        <ele>657.23</ele>
        <time>2015-03-25T10:35:23Z</time>
      </trkpt>
      <trkpt lat="45.88927" lon="2.76555">
        <ele>657.4</ele>
        <time>2015-03-25T10:35:41Z</time>
      </trkpt>
      <trkpt lat="45.88923" lon="2.76548">
        <ele>657.41</ele>
        <time>2015-03-25T10:35:49Z</time>
      </trkpt>
      <trkpt lat="45.88911" lon="2.76528">
        <ele>657.02</ele>
        <time>2015-03-25T10:36:07Z</time>
      </trkpt>
      <trkpt lat="45.88889" lon="2.76505">
        <ele>658.39</ele>
        <time>2015-03-25T10:36:30Z</time>
      </trkpt>
      <trkpt lat="45.88884" lon="2.76502">
        <ele>658.3</ele>
        <time>2015-03-25T10:36:35Z</time>
      </trkpt>
      <trkpt lat="45.88871" lon="2.7651">
        <ele>659.34</ele>
        <time>2015-03-25T10:36:50Z</time>
      </trkpt>
      <trkpt lat="45.88847" lon="2.76504">
        <ele>661.2</ele>
        <time>2015-03-25T10:37:10Z</time>
      </trkpt>
      <trkpt lat="45.88825" lon="2.76497">
        <ele>662.71</ele>
        <time>2015-03-25T10:37:29Z</time>
      </trkpt>
      <trkpt lat="45.88802" lon="2.76488">
        <ele>664.02</ele>
        <time>2015-03-25T10:37:50Z</time>
      </trkpt>
      <trkpt lat="45.8878" lon="2.76482">
        <ele>667.12</ele>
        <time>2015-03-25T10:38:11Z</time>
      </trkpt>
      <trkpt lat="45.88759" lon="2.76474">
        <ele>670.21</ele>
        <time>2015-03-25T10:38:32Z</time>
      </trkpt>
      <trkpt lat="45.88741" lon="2.76455">
        <ele>673.26</ele>
        <time>2015-03-25T10:38:54Z</time>
      </trkpt>
      <trkpt lat="45.88727" lon="2.76449">
        <ele>675.3</ele>
        <time>2015-03-25T10:39:08Z</time>
      </trkpt>
      <trkpt lat="45.88713" lon="2.76447">
        <ele>674.19</ele>
        <time>2015-03-25T10:39:18Z</time>
      </trkpt>
      <trkpt lat="45.88692" lon="2.76446">
        <ele>673.42</ele>
        <time>2015-03-25T10:39:35Z</time>
      </trkpt>
      <trkpt lat="45.88671" lon="2.76458">
        <ele>674.46</ele>
        <time>2015-03-25T10:39:55Z</time>
      </trkpt>
      <trkpt lat="45.88657" lon="2.76477">
        <ele>675.55</ele>
        <time>2015-03-25T10:40:11Z</time>
      </trkpt>
      <trkpt lat="45.88638" lon="2.76494">
        <ele>677.33</ele>
        <time>2015-03-25T10:40:29Z</time>
      </trkpt>
      <trkpt lat="45.88612" lon="2.76496">
        <ele>679.09</ele>
        <time>2015-03-25T10:40:51Z</time>
      </trkpt>
      <trkpt lat="45.88597" lon="2.76504">
        <ele>682.14</ele>
        <time>2015-03-25T10:41:07Z</time>
      </trkpt>
      <trkpt lat="45.88583" lon="2.76508">
        <ele>683.9</ele>
        <time>2015-03-25T10:41:21Z</time>
      </trkpt>
      <trkpt lat="45.88559" lon="2.76508">
        <ele>686.08</ele>
        <time>2015-03-25T10:41:39Z</time>
      </trkpt>
      <trkpt lat="45.88547" lon="2.76529">
        <ele>688.69</ele>
        <time>2015-03-25T10:41:58Z</time>
      </trkpt>
      <trkpt lat="45.88544" lon="2.76543">
        <ele>689.33</ele>
        <time>2015-03-25T10:42:15Z</time>
      </trkpt>
      <trkpt lat="45.88542" lon="2.76542">
        <ele>689.51</ele>
        <time>2015-03-25T10:42:37Z</time>
      </trkpt>
      <trkpt lat="45.88545" lon="2.76537">
        <ele>688.94</ele>
        <time>2015-03-25T10:43:06Z</time>
      </trkpt>
      <trkpt lat="45.88542" lon="2.76535">
        <ele>688.98</ele>
        <time>2015-03-25T10:43:36Z</time>
      </trkpt>
      <trkpt lat="45.88542" lon="2.76537">
        <ele>689.27</ele>
        <time>2015-03-25T10:44:02Z</time>
      </trkpt>
      <trkpt lat="45.88541" lon="2.76538">
        <ele>688.9</ele>
        <time>2015-03-25T10:44:33Z</time>
      </trkpt>
      <trkpt lat="45.88541" lon="2.76535">
        <ele>688.93</ele>
        <time>2015-03-25T10:45:00Z</time>
      </trkpt>
      <trkpt lat="45.88543" lon="2.76534">
        <ele>689.07</ele>
        <time>2015-03-25T10:45:31Z</time>
      </trkpt>
      <trkpt lat="45.88546" lon="2.76534">
        <ele>689.71</ele>
        <time>2015-03-25T10:46:04Z</time>
      </trkpt>
      <trkpt lat="45.88545" lon="2.76534">
        <ele>688.8</ele>
        <time>2015-03-25T10:46:30Z</time>
      </trkpt>
      <trkpt lat="45.88544" lon="2.76533">
        <ele>689.17</ele>
        <time>2015-03-25T10:46:58Z</time>
      </trkpt>
      <trkpt lat="45.88547" lon="2.76538">
        <ele>689.91</ele>
        <time>2015-03-25T10:47:20Z</time>
      </trkpt>
      <trkpt lat="45.8855" lon="2.76551">
        <ele>690.62</ele>
        <time>2015-03-25T10:47:29Z</time>
      </trkpt>
      <trkpt lat="45.88551" lon="2.76568">
        <ele>691.3</ele>
        <time>2015-03-25T10:47:44Z</time>
      </trkpt>
      <trkpt lat="45.88554" lon="2.76583">
        <ele>692.66</ele>
        <time>2015-03-25T10:47:55Z</time>
      </trkpt>
      <trkpt lat="45.88556" lon="2.76611">
        <ele>693.76</ele>
        <time>2015-03-25T10:48:12Z</time>
      </trkpt>
      <trkpt lat="45.88555" lon="2.76646">
        <ele>694.86</ele>
        <time>2015-03-25T10:48:31Z</time>
      </trkpt>
      <trkpt lat="45.88555" lon="2.76648">
        <ele>695.24</ele>
        <time>2015-03-25T10:48:32Z</time>
      </trkpt>
      <trkpt lat="45.88555" lon="2.76677">
        <ele>695.69</ele>
        <time>2015-03-25T10:48:48Z</time>
      </trkpt>
      <trkpt lat="45.88553" lon="2.76694">
        <ele>696.05</ele>
        <time>2015-03-25T10:49:01Z</time>
      </trkpt>
      <trkpt lat="45.88549" lon="2.76711">
        <ele>696</ele>
        <time>2015-03-25T10:49:15Z</time>
      </trkpt>
      <trkpt lat="45.88546" lon="2.76715">
        <ele>696.38</ele>
        <time>2015-03-25T10:49:19Z</time>
      </trkpt>
      <trkpt lat="45.88545" lon="2.76719">
        <ele>696.29</ele>
        <time>2015-03-25T10:49:22Z</time>
      </trkpt>
      <trkpt lat="45.8854" lon="2.7675">
        <ele>696.1</ele>
        <time>2015-03-25T10:49:40Z</time>
      </trkpt>
      <trkpt lat="45.8854" lon="2.76756">
        <ele>695.69</ele>
        <time>2015-03-25T10:49:44Z</time>
      </trkpt>
      <trkpt lat="45.88535" lon="2.76784">
        <ele>694.74</ele>
        <time>2015-03-25T10:50:01Z</time>
      </trkpt>
      <trkpt lat="45.88529" lon="2.76816">
        <ele>693.86</ele>
        <time>2015-03-25T10:50:18Z</time>
      </trkpt>
      <trkpt lat="45.88514" lon="2.76851">
        <ele>693.12</ele>
        <time>2015-03-25T10:50:39Z</time>
      </trkpt>
      <trkpt lat="45.88499" lon="2.76876">
        <ele>691.99</ele>
        <time>2015-03-25T10:50:56Z</time>
      </trkpt>
      <trkpt lat="45.88489" lon="2.76895">
        <ele>691.98</ele>
        <time>2015-03-25T10:51:12Z</time>
      </trkpt>
      <trkpt lat="45.88484" lon="2.76898">
        <ele>691.46</ele>
        <time>2015-03-25T10:51:17Z</time>
      </trkpt>
      <trkpt lat="45.88468" lon="2.76922">
        <ele>689.8</ele>
        <time>2015-03-25T10:51:35Z</time>
      </trkpt>
      <trkpt lat="45.88458" lon="2.76938">
        <ele>689.88</ele>
        <time>2015-03-25T10:51:46Z</time>
      </trkpt>
      <trkpt lat="45.8844" lon="2.76964">
        <ele>688.3</ele>
        <time>2015-03-25T10:52:07Z</time>
      </trkpt>
      <trkpt lat="45.88437" lon="2.76969">
        <ele>687.31</ele>
        <time>2015-03-25T10:52:11Z</time>
      </trkpt>
      <trkpt lat="45.88414" lon="2.76992">
        <ele>687.95</ele>
        <time>2015-03-25T10:52:33Z</time>
      </trkpt>
      <trkpt lat="45.88392" lon="2.76998">
        <ele>686.47</ele>
        <time>2015-03-25T10:52:51Z</time>
      </trkpt>
      <trkpt lat="45.88369" lon="2.76991">
        <ele>686.69</ele>
        <time>2015-03-25T10:53:10Z</time>
      </trkpt>
      <trkpt lat="45.88343" lon="2.76969">
        <ele>687.31</ele>
        <time>2015-03-25T10:53:35Z</time>
      </trkpt>
      <trkpt lat="45.88338" lon="2.76964">
        <ele>687.44</ele>
        <time>2015-03-25T10:53:42Z</time>
      </trkpt>
      <trkpt lat="45.88316" lon="2.76959">
        <ele>687.96</ele>
        <time>2015-03-25T10:54:01Z</time>
      </trkpt>
      <trkpt lat="45.88296" lon="2.76972">
        <ele>688.95</ele>
        <time>2015-03-25T10:54:19Z</time>
      </trkpt>
      <trkpt lat="45.88271" lon="2.76998">
        <ele>688.64</ele>
        <time>2015-03-25T10:54:44Z</time>
      </trkpt>
      <trkpt lat="45.88257" lon="2.77026">
        <ele>687.24</ele>
        <time>2015-03-25T10:55:04Z</time>
      </trkpt>
      <trkpt lat="45.88244" lon="2.77059">
        <ele>686.79</ele>
        <time>2015-03-25T10:55:25Z</time>
      </trkpt>
      <trkpt lat="45.88235" lon="2.77093">
        <ele>685.06</ele>
        <time>2015-03-25T10:55:46Z</time>
      </trkpt>
      <trkpt lat="45.88227" lon="2.77126">
        <ele>684.28</ele>
        <time>2015-03-25T10:56:06Z</time>
      </trkpt>
      <trkpt lat="45.8822" lon="2.77152">
        <ele>682.66</ele>
        <time>2015-03-25T10:56:23Z</time>
      </trkpt>
      <trkpt lat="45.88223" lon="2.77171">
        <ele>682.39</ele>
        <time>2015-03-25T10:56:39Z</time>
      </trkpt>
      <trkpt lat="45.88227" lon="2.77174">
        <ele>682.72</ele>
        <time>2015-03-25T10:56:47Z</time>
      </trkpt>
      <trkpt lat="45.88232" lon="2.77178">
        <ele>682.55</ele>
        <time>2015-03-25T10:56:52Z</time>
      </trkpt>
      <trkpt lat="45.88247" lon="2.77187">
        <ele>681.17</ele>
        <time>2015-03-25T10:57:08Z</time>
      </trkpt>
      <trkpt lat="45.88262" lon="2.77185">
        <ele>679.83</ele>
        <time>2015-03-25T10:57:21Z</time>
      </trkpt>
      <trkpt lat="45.88269" lon="2.77185">
        <ele>679.37</ele>
        <time>2015-03-25T10:57:27Z</time>
      </trkpt>
      <trkpt lat="45.88284" lon="2.77189">
        <ele>679.72</ele>
        <time>2015-03-25T10:57:38Z</time>
      </trkpt>
      <trkpt lat="45.88289" lon="2.7719">
        <ele>679.48</ele>
        <time>2015-03-25T10:57:43Z</time>
      </trkpt>
      <trkpt lat="45.88308" lon="2.77196">
        <ele>677.66</ele>
        <time>2015-03-25T10:58:00Z</time>
      </trkpt>
      <trkpt lat="45.88326" lon="2.77198">
        <ele>675.35</ele>
        <time>2015-03-25T10:58:15Z</time>
      </trkpt>
      <trkpt lat="45.88343" lon="2.77211">
        <ele>675.26</ele>
        <time>2015-03-25T10:58:31Z</time>
      </trkpt>
      <trkpt lat="45.88354" lon="2.77221">
        <ele>673.55</ele>
        <time>2015-03-25T10:58:42Z</time>
      </trkpt>
      <trkpt lat="45.88357" lon="2.77225">
        <ele>673.67</ele>
        <time>2015-03-25T10:58:45Z</time>
      </trkpt>
      <trkpt lat="45.88373" lon="2.77244">
        <ele>672.77</ele>
        <time>2015-03-25T10:59:00Z</time>
      </trkpt>
      <trkpt lat="45.88389" lon="2.77262">
        <ele>673.24</ele>
        <time>2015-03-25T10:59:16Z</time>
      </trkpt>
      <trkpt lat="45.88396" lon="2.77268">
        <ele>673.7</ele>
        <time>2015-03-25T10:59:23Z</time>
      </trkpt>
      <trkpt lat="45.88398" lon="2.7727">
        <ele>673.79</ele>
        <time>2015-03-25T10:59:25Z</time>
      </trkpt>
      <trkpt lat="45.88415" lon="2.7728">
        <ele>675.05</ele>
        <time>2015-03-25T10:59:43Z</time>
      </trkpt>
      <trkpt lat="45.88416" lon="2.77281">
        <ele>674.81</ele>
        <time>2015-03-25T10:59:44Z</time>
      </trkpt>
      <trkpt lat="45.88432" lon="2.77287">
        <ele>677.4</ele>
        <time>2015-03-25T10:59:57Z</time>
      </trkpt>
      <trkpt lat="45.88433" lon="2.77287">
        <ele>677.45</ele>
        <time>2015-03-25T10:59:58Z</time>
      </trkpt>
      <trkpt lat="45.88442" lon="2.77291">
        <ele>678.66</ele>
        <time>2015-03-25T11:00:05Z</time>
      </trkpt>
      <trkpt lat="45.88444" lon="2.77292">
        <ele>678.45</ele>
        <time>2015-03-25T11:00:07Z</time>
      </trkpt>
      <trkpt lat="45.88457" lon="2.77304">
        <ele>680.23</ele>
        <time>2015-03-25T11:00:21Z</time>
      </trkpt>
      <trkpt lat="45.88466" lon="2.77311">
        <ele>681.09</ele>
        <time>2015-03-25T11:00:31Z</time>
      </trkpt>
      <trkpt lat="45.88478" lon="2.77323">
        <ele>683.93</ele>
        <time>2015-03-25T11:00:46Z</time>
      </trkpt>
      <trkpt lat="45.88502" lon="2.77335">
        <ele>684.57</ele>
        <time>2015-03-25T11:01:07Z</time>
      </trkpt>
      <trkpt lat="45.88516" lon="2.77346">
        <ele>685.3</ele>
        <time>2015-03-25T11:01:20Z</time>
      </trkpt>
      <trkpt lat="45.88532" lon="2.77351">
        <ele>686.4</ele>
        <time>2015-03-25T11:01:34Z</time>
      </trkpt>
      <trkpt lat="45.88545" lon="2.77357">
        <ele>687.21</ele>
        <time>2015-03-25T11:01:51Z</time>
      </trkpt>
      <trkpt lat="45.88567" lon="2.77365">
        <ele>687.95</ele>
        <time>2015-03-25T11:02:10Z</time>
      </trkpt>
      <trkpt lat="45.88579" lon="2.77367">
        <ele>687.1</ele>
        <time>2015-03-25T11:02:17Z</time>
      </trkpt>
      <trkpt lat="45.8858" lon="2.77367">
        <ele>687.26</ele>
        <time>2015-03-25T11:02:18Z</time>
      </trkpt>
      <trkpt lat="45.88582" lon="2.77368">
        <ele>687.13</ele>
        <time>2015-03-25T11:02:19Z</time>
      </trkpt>
      <trkpt lat="45.88584" lon="2.77369">
        <ele>686.83</ele>
        <time>2015-03-25T11:02:20Z</time>
      </trkpt>
      <trkpt lat="45.88586" lon="2.77369">
        <ele>687.81</ele>
        <time>2015-03-25T11:02:21Z</time>
      </trkpt>
      <trkpt lat="45.88599" lon="2.77372">
        <ele>687.06</ele>
        <time>2015-03-25T11:02:33Z</time>
      </trkpt>
      <trkpt lat="45.88602" lon="2.77373">
        <ele>686.94</ele>
        <time>2015-03-25T11:02:36Z</time>
      </trkpt>
      <trkpt lat="45.88621" lon="2.77376">
        <ele>686.24</ele>
        <time>2015-03-25T11:02:49Z</time>
      </trkpt>
      <trkpt lat="45.88641" lon="2.77377">
        <ele>685.69</ele>
        <time>2015-03-25T11:03:02Z</time>
      </trkpt>
      <trkpt lat="45.88653" lon="2.77378">
        <ele>686.21</ele>
        <time>2015-03-25T11:03:14Z</time>
      </trkpt>
      <trkpt lat="45.8866" lon="2.77379">
        <ele>685.52</ele>
        <time>2015-03-25T11:03:19Z</time>
      </trkpt>
      <trkpt lat="45.88664" lon="2.77381">
        <ele>686.62</ele>
        <time>2015-03-25T11:03:22Z</time>
      </trkpt>
      <trkpt lat="45.88665" lon="2.77383">
        <ele>686.55</ele>
        <time>2015-03-25T11:03:23Z</time>
      </trkpt>
      <trkpt lat="45.88665" lon="2.77384">
        <ele>686.4</ele>
        <time>2015-03-25T11:03:24Z</time>
      </trkpt>
      <trkpt lat="45.88666" lon="2.77385">
        <ele>686.72</ele>
        <time>2015-03-25T11:03:25Z</time>
      </trkpt>
      <trkpt lat="45.88669" lon="2.77386">
        <ele>686.44</ele>
        <time>2015-03-25T11:03:28Z</time>
      </trkpt>
      <trkpt lat="45.88686" lon="2.77389">
        <ele>686.25</ele>
        <time>2015-03-25T11:03:41Z</time>
      </trkpt>
      <trkpt lat="45.88699" lon="2.77397">
        <ele>686.59</ele>
        <time>2015-03-25T11:03:56Z</time>
      </trkpt>
      <trkpt lat="45.887" lon="2.77398">
        <ele>686.28</ele>
        <time>2015-03-25T11:03:57Z</time>
      </trkpt>
      <trkpt lat="45.88714" lon="2.77403">
        <ele>685.67</ele>
        <time>2015-03-25T11:04:10Z</time>
      </trkpt>
      <trkpt lat="45.88717" lon="2.77404">
        <ele>685.96</ele>
        <time>2015-03-25T11:04:12Z</time>
      </trkpt>
      <trkpt lat="45.88725" lon="2.77405">
        <ele>685.44</ele>
        <time>2015-03-25T11:04:18Z</time>
      </trkpt>
      <trkpt lat="45.88727" lon="2.77405">
        <ele>684.88</ele>
        <time>2015-03-25T11:04:19Z</time>
      </trkpt>
      <trkpt lat="45.88729" lon="2.77405">
        <ele>684.68</ele>
        <time>2015-03-25T11:04:20Z</time>
      </trkpt>
      <trkpt lat="45.88744" lon="2.77407">
        <ele>684.8</ele>
        <time>2015-03-25T11:04:32Z</time>
      </trkpt>
      <trkpt lat="45.88769" lon="2.77412">
        <ele>684.75</ele>
        <time>2015-03-25T11:04:49Z</time>
      </trkpt>
      <trkpt lat="45.8879" lon="2.77415">
        <ele>683.65</ele>
        <time>2015-03-25T11:05:03Z</time>
      </trkpt>
      <trkpt lat="45.88805" lon="2.77418">
        <ele>682.76</ele>
        <time>2015-03-25T11:05:18Z</time>
      </trkpt>
      <trkpt lat="45.8882" lon="2.77421">
        <ele>682.46</ele>
        <time>2015-03-25T11:05:29Z</time>
      </trkpt>
      <trkpt lat="45.88841" lon="2.77424">
        <ele>682.2</ele>
        <time>2015-03-25T11:05:44Z</time>
      </trkpt>
      <trkpt lat="45.88858" lon="2.77428">
        <ele>682.47</ele>
        <time>2015-03-25T11:05:58Z</time>
      </trkpt>
      <trkpt lat="45.88867" lon="2.77432">
        <ele>682.6</ele>
        <time>2015-03-25T11:06:07Z</time>
      </trkpt>
      <trkpt lat="45.88876" lon="2.77434">
        <ele>683.47</ele>
        <time>2015-03-25T11:06:17Z</time>
      </trkpt>
      <trkpt lat="45.88888" lon="2.77436">
        <ele>682.67</ele>
        <time>2015-03-25T11:06:30Z</time>
      </trkpt>
      <trkpt lat="45.88899" lon="2.77437">
        <ele>681.9</ele>
        <time>2015-03-25T11:06:45Z</time>
      </trkpt>
      <trkpt lat="45.88919" lon="2.77441">
        <ele>683.4</ele>
        <time>2015-03-25T11:07:04Z</time>
      </trkpt>
      <trkpt lat="45.88931" lon="2.77448">
        <ele>682.85</ele>
        <time>2015-03-25T11:07:18Z</time>
      </trkpt>
      <trkpt lat="45.88931" lon="2.77448">
        <ele>682.14</ele>
        <time>2015-03-25T11:07:20Z</time>
      </trkpt>
      <trkpt lat="45.88932" lon="2.77451">
        <ele>683.4</ele>
        <time>2015-03-25T11:07:42Z</time>
      </trkpt>
      <trkpt lat="45.88935" lon="2.77452">
        <ele>683.63</ele>
        <time>2015-03-25T11:08:06Z</time>
      </trkpt>
      <trkpt lat="45.88935" lon="2.77444">
        <ele>683.81</ele>
        <time>2015-03-25T11:08:30Z</time>
      </trkpt>
      <trkpt lat="45.88937" lon="2.77448">
        <ele>683.67</ele>
        <time>2015-03-25T11:08:49Z</time>
      </trkpt>
      <trkpt lat="45.88941" lon="2.77446">
        <ele>683.67</ele>
        <time>2015-03-25T11:09:13Z</time>
      </trkpt>
      <trkpt lat="45.88944" lon="2.77448">
        <ele>683.44</ele>
        <time>2015-03-25T11:09:17Z</time>
      </trkpt>
      <trkpt lat="45.88944" lon="2.7745">
        <ele>683.94</ele>
        <time>2015-03-25T11:09:18Z</time>
      </trkpt>
      <trkpt lat="45.88945" lon="2.77451">
        <ele>684.17</ele>
        <time>2015-03-25T11:09:19Z</time>
      </trkpt>
      <trkpt lat="45.88947" lon="2.77452">
        <ele>684.42</ele>
        <time>2015-03-25T11:09:20Z</time>
      </trkpt>
      <trkpt lat="45.88948" lon="2.77452">
        <ele>683.88</ele>
        <time>2015-03-25T11:09:21Z</time>
      </trkpt>
      <trkpt lat="45.88954" lon="2.77463">
        <ele>683.47</ele>
        <time>2015-03-25T11:09:35Z</time>
      </trkpt>
      <trkpt lat="45.88956" lon="2.77465">
        <ele>683.8</ele>
        <time>2015-03-25T11:09:37Z</time>
      </trkpt>
      <trkpt lat="45.88967" lon="2.77472">
        <ele>683.98</ele>
        <time>2015-03-25T11:09:50Z</time>
      </trkpt>
      <trkpt lat="45.88978" lon="2.77475">
        <ele>685.11</ele>
        <time>2015-03-25T11:10:05Z</time>
      </trkpt>
      <trkpt lat="45.88994" lon="2.77482">
        <ele>685.91</ele>
        <time>2015-03-25T11:10:22Z</time>
      </trkpt>
      <trkpt lat="45.89012" lon="2.77486">
        <ele>685.61</ele>
        <time>2015-03-25T11:10:40Z</time>
      </trkpt>
      <trkpt lat="45.89028" lon="2.77486">
        <ele>687.34</ele>
        <time>2015-03-25T11:10:58Z</time>
      </trkpt>
      <trkpt lat="45.89043" lon="2.77485">
        <ele>686.7</ele>
        <time>2015-03-25T11:11:10Z</time>
      </trkpt>
      <trkpt lat="45.89045" lon="2.77483">
        <ele>686.97</ele>
        <time>2015-03-25T11:11:12Z</time>
      </trkpt>
      <trkpt lat="45.89056" lon="2.77484">
        <ele>687.09</ele>
        <time>2015-03-25T11:11:26Z</time>
      </trkpt>
      <trkpt lat="45.89076" lon="2.77487">
        <ele>686.99</ele>
        <time>2015-03-25T11:11:43Z</time>
      </trkpt>
      <trkpt lat="45.89094" lon="2.77492">
        <ele>687.41</ele>
        <time>2015-03-25T11:12:02Z</time>
      </trkpt>
      <trkpt lat="45.89112" lon="2.77501">
        <ele>687.24</ele>
        <time>2015-03-25T11:12:19Z</time>
      </trkpt>
      <trkpt lat="45.89116" lon="2.77502">
        <ele>687.54</ele>
        <time>2015-03-25T11:12:21Z</time>
      </trkpt>
      <trkpt lat="45.89129" lon="2.77515">
        <ele>687.12</ele>
        <time>2015-03-25T11:12:37Z</time>
      </trkpt>
      <trkpt lat="45.89136" lon="2.7753">
        <ele>687.8</ele>
        <time>2015-03-25T11:12:53Z</time>
      </trkpt>
      <trkpt lat="45.89152" lon="2.77547">
        <ele>687.63</ele>
        <time>2015-03-25T11:13:10Z</time>
      </trkpt>
      <trkpt lat="45.89161" lon="2.77567">
        <ele>687.58</ele>
        <time>2015-03-25T11:13:28Z</time>
      </trkpt>
      <trkpt lat="45.89177" lon="2.7758">
        <ele>686.51</ele>
        <time>2015-03-25T11:13:46Z</time>
      </trkpt>
      <trkpt lat="45.89192" lon="2.77593">
        <ele>685.92</ele>
        <time>2015-03-25T11:14:02Z</time>
      </trkpt>
      <trkpt lat="45.89206" lon="2.77611">
        <ele>686.5</ele>
        <time>2015-03-25T11:14:20Z</time>
      </trkpt>
      <trkpt lat="45.89215" lon="2.77623">
        <ele>686.11</ele>
        <time>2015-03-25T11:14:35Z</time>
      </trkpt>
      <trkpt lat="45.8923" lon="2.77637">
        <ele>685.51</ele>
        <time>2015-03-25T11:14:52Z</time>
      </trkpt>
      <trkpt lat="45.89248" lon="2.77642">
        <ele>685.23</ele>
        <time>2015-03-25T11:15:08Z</time>
      </trkpt>
      <trkpt lat="45.89261" lon="2.77655">
        <ele>685.2</ele>
        <time>2015-03-25T11:15:25Z</time>
      </trkpt>
      <trkpt lat="45.89268" lon="2.7768">
        <ele>685.47</ele>
        <time>2015-03-25T11:15:40Z</time>
      </trkpt>
      <trkpt lat="45.89271" lon="2.77693">
        <ele>684.65</ele>
        <time>2015-03-25T11:15:57Z</time>
      </trkpt>
      <trkpt lat="45.89279" lon="2.77701">
        <ele>685.08</ele>
        <time>2015-03-25T11:16:17Z</time>
      </trkpt>
      <trkpt lat="45.89284" lon="2.77711">
        <ele>685.14</ele>
        <time>2015-03-25T11:16:35Z</time>
      </trkpt>
      <trkpt lat="45.89294" lon="2.77717">
        <ele>684.88</ele>
        <time>2015-03-25T11:16:51Z</time>
      </trkpt>
      <trkpt lat="45.89304" lon="2.77724">
        <ele>684.6</ele>
        <time>2015-03-25T11:17:08Z</time>
      </trkpt>
      <trkpt lat="45.89319" lon="2.77729">
        <ele>684.31</ele>
        <time>2015-03-25T11:17:25Z</time>
      </trkpt>
      <trkpt lat="45.89334" lon="2.77736">
        <ele>684.48</ele>
        <time>2015-03-25T11:17:39Z</time>
      </trkpt>
      <trkpt lat="45.89346" lon="2.77738">
        <ele>683.56</ele>
        <time>2015-03-25T11:18:03Z</time>
      </trkpt>
      <trkpt lat="45.89344" lon="2.77742">
        <ele>683.97</ele>
        <time>2015-03-25T11:18:34Z</time>
      </trkpt>
      <trkpt lat="45.89343" lon="2.77736">
        <ele>683.98</ele>
        <time>2015-03-25T11:19:04Z</time>
      </trkpt>
      <trkpt lat="45.8935" lon="2.77741">
        <ele>684.43</ele>
        <time>2015-03-25T11:19:24Z</time>
      </trkpt>
      <trkpt lat="45.89361" lon="2.77751">
        <ele>683.22</ele>
        <time>2015-03-25T11:19:35Z</time>
      </trkpt>
      <trkpt lat="45.89378" lon="2.77765">
        <ele>682.35</ele>
        <time>2015-03-25T11:19:53Z</time>
      </trkpt>
      <trkpt lat="45.89387" lon="2.77772">
        <ele>682.44</ele>
        <time>2015-03-25T11:20:03Z</time>
      </trkpt>
      <trkpt lat="45.89403" lon="2.77785">
        <ele>681.39</ele>
        <time>2015-03-25T11:20:18Z</time>
      </trkpt>
      <trkpt lat="45.89413" lon="2.77795">
        <ele>680.85</ele>
        <time>2015-03-25T11:20:29Z</time>
      </trkpt>
      <trkpt lat="45.89429" lon="2.77806">
        <ele>680.27</ele>
        <time>2015-03-25T11:20:43Z</time>
      </trkpt>
      <trkpt lat="45.89437" lon="2.77814">
        <ele>678.98</ele>
        <time>2015-03-25T11:20:50Z</time>
      </trkpt>
      <trkpt lat="45.89447" lon="2.77823">
        <ele>678.96</ele>
        <time>2015-03-25T11:21:00Z</time>
      </trkpt>
      <trkpt lat="45.89463" lon="2.77837">
        <ele>678.06</ele>
        <time>2015-03-25T11:21:16Z</time>
      </trkpt>
      <trkpt lat="45.89484" lon="2.77856">
        <ele>676.84</ele>
        <time>2015-03-25T11:21:34Z</time>
      </trkpt>
      <trkpt lat="45.89502" lon="2.77884">
        <ele>675.84</ele>
        <time>2015-03-25T11:21:53Z</time>
      </trkpt>
      <trkpt lat="45.89516" lon="2.7791">
        <ele>675.88</ele>
        <time>2015-03-25T11:22:11Z</time>
      </trkpt>
      <trkpt lat="45.89531" lon="2.77929">
        <ele>674.83</ele>
        <time>2015-03-25T11:22:27Z</time>
      </trkpt>
      <trkpt lat="45.89544" lon="2.77945">
        <ele>674.27</ele>
        <time>2015-03-25T11:22:42Z</time>
      </trkpt>
      <trkpt lat="45.89559" lon="2.77965">
        <ele>674.74</ele>
        <time>2015-03-25T11:23:00Z</time>
      </trkpt>
      <trkpt lat="45.89573" lon="2.7798">
        <ele>673.74</ele>
        <time>2015-03-25T11:23:16Z</time>
      </trkpt>
      <trkpt lat="45.89586" lon="2.77994">
        <ele>673.11</ele>
        <time>2015-03-25T11:23:31Z</time>
      </trkpt>
      <trkpt lat="45.89597" lon="2.78002">
        <ele>671.66</ele>
        <time>2015-03-25T11:23:41Z</time>
      </trkpt>
      <trkpt lat="45.89615" lon="2.78022">
        <ele>671.23</ele>
        <time>2015-03-25T11:24:00Z</time>
      </trkpt>
      <trkpt lat="45.89629" lon="2.78039">
        <ele>671.14</ele>
        <time>2015-03-25T11:24:17Z</time>
      </trkpt>
      <trkpt lat="45.89631" lon="2.78042">
        <ele>670.76</ele>
        <time>2015-03-25T11:24:20Z</time>
      </trkpt>
      <trkpt lat="45.89639" lon="2.78055">
        <ele>670.93</ele>
        <time>2015-03-25T11:24:31Z</time>
      </trkpt>
      <trkpt lat="45.8965" lon="2.78083">
        <ele>670.33</ele>
        <time>2015-03-25T11:24:48Z</time>
      </trkpt>
      <trkpt lat="45.89661" lon="2.78105">
        <ele>669.17</ele>
        <time>2015-03-25T11:25:04Z</time>
      </trkpt>
      <trkpt lat="45.89672" lon="2.78122">
        <ele>669.44</ele>
        <time>2015-03-25T11:25:24Z</time>
      </trkpt>
      <trkpt lat="45.89674" lon="2.78123">
        <ele>669.81</ele>
        <time>2015-03-25T11:25:40Z</time>
      </trkpt>
      <trkpt lat="45.89674" lon="2.78123">
        <ele>669.64</ele>
        <time>2015-03-25T11:26:04Z</time>
      </trkpt>
      <trkpt lat="45.89673" lon="2.78123">
        <ele>670.2</ele>
        <time>2015-03-25T11:26:26Z</time>
      </trkpt>
      <trkpt lat="45.89673" lon="2.78124">
        <ele>670.57</ele>
        <time>2015-03-25T11:26:56Z</time>
      </trkpt>
      <trkpt lat="45.89674" lon="2.78123">
        <ele>671</ele>
        <time>2015-03-25T11:27:17Z</time>
      </trkpt>
      <trkpt lat="45.89673" lon="2.78124">
        <ele>670.17</ele>
        <time>2015-03-25T11:27:50Z</time>
      </trkpt>
      <trkpt lat="45.89673" lon="2.78125">
        <ele>670.5</ele>
        <time>2015-03-25T11:28:28Z</time>
      </trkpt>
      <trkpt lat="45.89674" lon="2.78126">
        <ele>671.66</ele>
        <time>2015-03-25T11:29:01Z</time>
      </trkpt>
      <trkpt lat="45.89675" lon="2.78126">
        <ele>671.48</ele>
        <time>2015-03-25T11:29:30Z</time>
      </trkpt>
      <trkpt lat="45.89674" lon="2.78126">
        <ele>671.7</ele>
        <time>2015-03-25T11:29:58Z</time>
      </trkpt>
      <trkpt lat="45.89677" lon="2.78122">
        <ele>671.47</ele>
        <time>2015-03-25T11:30:23Z</time>
      </trkpt>
      <trkpt lat="45.89683" lon="2.78109">
        <ele>671.15</ele>
        <time>2015-03-25T11:30:39Z</time>
      </trkpt>
      <trkpt lat="45.89686" lon="2.78102">
        <ele>671.16</ele>
        <time>2015-03-25T11:30:45Z</time>
      </trkpt>
      <trkpt lat="45.89693" lon="2.78079">
        <ele>670.41</ele>
        <time>2015-03-25T11:31:01Z</time>
      </trkpt>
      <trkpt lat="45.897" lon="2.7806">
        <ele>669.56</ele>
        <time>2015-03-25T11:31:14Z</time>
      </trkpt>
      <trkpt lat="45.89707" lon="2.78046">
        <ele>669.81</ele>
        <time>2015-03-25T11:31:26Z</time>
      </trkpt>
      <trkpt lat="45.89711" lon="2.78028">
        <ele>668.52</ele>
        <time>2015-03-25T11:31:37Z</time>
      </trkpt>
      <trkpt lat="45.89717" lon="2.78017">
        <ele>668.35</ele>
        <time>2015-03-25T11:31:47Z</time>
      </trkpt>
      <trkpt lat="45.89732" lon="2.78001">
        <ele>668.97</ele>
        <time>2015-03-25T11:32:01Z</time>
      </trkpt>
      <trkpt lat="45.89756" lon="2.77985">
        <ele>668.5</ele>
        <time>2015-03-25T11:32:18Z</time>
      </trkpt>
      <trkpt lat="45.89783" lon="2.77961">
        <ele>668.41</ele>
        <time>2015-03-25T11:32:38Z</time>
      </trkpt>
      <trkpt lat="45.89801" lon="2.77943">
        <ele>668.37</ele>
        <time>2015-03-25T11:32:56Z</time>
      </trkpt>
      <trkpt lat="45.89804" lon="2.77939">
        <ele>668.42</ele>
        <time>2015-03-25T11:33:00Z</time>
      </trkpt>
      <trkpt lat="45.89815" lon="2.77933">
        <ele>668.47</ele>
        <time>2015-03-25T11:33:10Z</time>
      </trkpt>
      <trkpt lat="45.89823" lon="2.77928">
        <ele>669.08</ele>
        <time>2015-03-25T11:33:19Z</time>
      </trkpt>
      <trkpt lat="45.89834" lon="2.77913">
        <ele>669.84</ele>
        <time>2015-03-25T11:33:33Z</time>
      </trkpt>
      <trkpt lat="45.89837" lon="2.7791">
        <ele>670.33</ele>
        <time>2015-03-25T11:33:36Z</time>
      </trkpt>
      <trkpt lat="45.89842" lon="2.77908">
        <ele>670.06</ele>
        <time>2015-03-25T11:33:40Z</time>
      </trkpt>
      <trkpt lat="45.89851" lon="2.77897">
        <ele>670.69</ele>
        <time>2015-03-25T11:33:48Z</time>
      </trkpt>
      <trkpt lat="45.89869" lon="2.77878">
        <ele>670.74</ele>
        <time>2015-03-25T11:34:04Z</time>
      </trkpt>
      <trkpt lat="45.89871" lon="2.77875">
        <ele>669.39</ele>
        <time>2015-03-25T11:34:06Z</time>
      </trkpt>
      <trkpt lat="45.89878" lon="2.77869">
        <ele>669.15</ele>
        <time>2015-03-25T11:34:12Z</time>
      </trkpt>
      <trkpt lat="45.899" lon="2.77846">
        <ele>669.91</ele>
        <time>2015-03-25T11:34:33Z</time>
      </trkpt>
      <trkpt lat="45.89926" lon="2.77836">
        <ele>669.63</ele>
        <time>2015-03-25T11:34:54Z</time>
      </trkpt>
      <trkpt lat="45.89949" lon="2.7783">
        <ele>669.73</ele>
        <time>2015-03-25T11:35:12Z</time>
      </trkpt>
      <trkpt lat="45.89965" lon="2.77824">
        <ele>669.62</ele>
        <time>2015-03-25T11:35:26Z</time>
      </trkpt>
      <trkpt lat="45.89986" lon="2.77816">
        <ele>670.16</ele>
        <time>2015-03-25T11:35:44Z</time>
      </trkpt>
      <trkpt lat="45.90008" lon="2.77806">
        <ele>671.02</ele>
        <time>2015-03-25T11:36:02Z</time>
      </trkpt>
      <trkpt lat="45.90032" lon="2.77795">
        <ele>670.62</ele>
        <time>2015-03-25T11:36:22Z</time>
      </trkpt>
      <trkpt lat="45.90048" lon="2.7779">
        <ele>672.08</ele>
        <time>2015-03-25T11:36:38Z</time>
      </trkpt>
      <trkpt lat="45.90069" lon="2.7778">
        <ele>670.99</ele>
        <time>2015-03-25T11:36:53Z</time>
      </trkpt>
      <trkpt lat="45.9007" lon="2.77779">
        <ele>670.75</ele>
        <time>2015-03-25T11:36:54Z</time>
      </trkpt>
      <trkpt lat="45.90093" lon="2.7777">
        <ele>672.18</ele>
        <time>2015-03-25T11:37:12Z</time>
      </trkpt>
      <trkpt lat="45.90117" lon="2.77759">
        <ele>672.52</ele>
        <time>2015-03-25T11:37:30Z</time>
      </trkpt>
      <trkpt lat="45.90144" lon="2.7775">
        <ele>673.76</ele>
        <time>2015-03-25T11:37:51Z</time>
      </trkpt>
      <trkpt lat="45.90164" lon="2.77742">
        <ele>673.37</ele>
        <time>2015-03-25T11:38:08Z</time>
      </trkpt>
      <trkpt lat="45.90184" lon="2.77735">
        <ele>674.65</ele>
        <time>2015-03-25T11:38:25Z</time>
      </trkpt>
      <trkpt lat="45.90202" lon="2.77729">
        <ele>674.57</ele>
        <time>2015-03-25T11:38:41Z</time>
      </trkpt>
      <trkpt lat="45.90211" lon="2.77724">
        <ele>674.33</ele>
        <time>2015-03-25T11:38:51Z</time>
      </trkpt>
      <trkpt lat="45.90215" lon="2.77718">
        <ele>675.29</ele>
        <time>2015-03-25T11:38:56Z</time>
      </trkpt>
      <trkpt lat="45.90217" lon="2.7771">
        <ele>675.91</ele>
        <time>2015-03-25T11:39:01Z</time>
      </trkpt>
      <trkpt lat="45.90219" lon="2.77703">
        <ele>675.08</ele>
        <time>2015-03-25T11:39:05Z</time>
      </trkpt>
      <trkpt lat="45.90219" lon="2.77694">
        <ele>675.28</ele>
        <time>2015-03-25T11:39:10Z</time>
      </trkpt>
      <trkpt lat="45.90214" lon="2.77675">
        <ele>676.33</ele>
        <time>2015-03-25T11:39:23Z</time>
      </trkpt>
      <trkpt lat="45.90201" lon="2.77652">
        <ele>675.81</ele>
        <time>2015-03-25T11:39:41Z</time>
      </trkpt>
      <trkpt lat="45.90189" lon="2.77639">
        <ele>675.78</ele>
        <time>2015-03-25T11:39:57Z</time>
      </trkpt>
      <trkpt lat="45.90185" lon="2.77631">
        <ele>675.91</ele>
        <time>2015-03-25T11:40:10Z</time>
      </trkpt>
      <trkpt lat="45.90184" lon="2.7764">
        <ele>675.62</ele>
        <time>2015-03-25T11:40:24Z</time>
      </trkpt>
      <trkpt lat="45.9018" lon="2.77644">
        <ele>675.95</ele>
        <time>2015-03-25T11:40:30Z</time>
      </trkpt>
      <trkpt lat="45.90177" lon="2.77649">
        <ele>676.09</ele>
        <time>2015-03-25T11:40:45Z</time>
      </trkpt>
      <trkpt lat="45.90179" lon="2.77645">
        <ele>676.25</ele>
        <time>2015-03-25T11:40:59Z</time>
      </trkpt>
      <trkpt lat="45.90179" lon="2.77644">
        <ele>675.97</ele>
        <time>2015-03-25T11:41:01Z</time>
      </trkpt>
      <trkpt lat="45.90164" lon="2.7763">
        <ele>676.39</ele>
        <time>2015-03-25T11:41:19Z</time>
      </trkpt>
      <trkpt lat="45.90164" lon="2.77629">
        <ele>676.28</ele>
        <time>2015-03-25T11:41:41Z</time>
      </trkpt>
      <trkpt lat="45.90166" lon="2.77628">
        <ele>676.12</ele>
        <time>2015-03-25T11:42:00Z</time>
      </trkpt>
      <trkpt lat="45.90172" lon="2.77626">
        <ele>676.28</ele>
        <time>2015-03-25T11:42:05Z</time>
      </trkpt>
      <trkpt lat="45.90193" lon="2.7764">
        <ele>676.31</ele>
        <time>2015-03-25T11:42:24Z</time>
      </trkpt>
      <trkpt lat="45.90203" lon="2.77646">
        <ele>676.34</ele>
        <time>2015-03-25T11:42:38Z</time>
      </trkpt>
      <trkpt lat="45.90204" lon="2.77646">
        <ele>676.49</ele>
        <time>2015-03-25T11:42:57Z</time>
      </trkpt>
      <trkpt lat="45.90199" lon="2.77641">
        <ele>676.72</ele>
        <time>2015-03-25T11:43:13Z</time>
      </trkpt>
      <trkpt lat="45.90199" lon="2.77641">
        <ele>677.4</ele>
        <time>2015-03-25T11:43:40Z</time>
      </trkpt>
      <trkpt lat="45.90201" lon="2.7764">
        <ele>677.76</ele>
        <time>2015-03-25T11:44:12Z</time>
      </trkpt>
      <trkpt lat="45.90199" lon="2.77641">
        <ele>676.98</ele>
        <time>2015-03-25T11:44:37Z</time>
      </trkpt>
      <trkpt lat="45.902" lon="2.77641">
        <ele>675.91</ele>
        <time>2015-03-25T11:45:07Z</time>
      </trkpt>
      <trkpt lat="45.90201" lon="2.77641">
        <ele>677.42</ele>
        <time>2015-03-25T11:45:42Z</time>
      </trkpt>
      <trkpt lat="45.90201" lon="2.7764">
        <ele>676.61</ele>
        <time>2015-03-25T11:46:12Z</time>
      </trkpt>
      <trkpt lat="45.902" lon="2.7764">
        <ele>676.53</ele>
        <time>2015-03-25T11:46:39Z</time>
      </trkpt>
      <trkpt lat="45.902" lon="2.77638">
        <ele>676.72</ele>
        <time>2015-03-25T11:47:15Z</time>
      </trkpt>
      <trkpt lat="45.90201" lon="2.77638">
        <ele>676.02</ele>
        <time>2015-03-25T11:47:48Z</time>
      </trkpt>
      <trkpt lat="45.90202" lon="2.7764">
        <ele>676.65</ele>
        <time>2015-03-25T11:48:22Z</time>
      </trkpt>
      <trkpt lat="45.90201" lon="2.7764">
        <ele>676.74</ele>
        <time>2015-03-25T11:49:11Z</time>
      </trkpt>
      <trkpt lat="45.90201" lon="2.7764">
        <ele>677.51</ele>
        <time>2015-03-25T11:49:56Z</time>
      </trkpt>
      <trkpt lat="45.902" lon="2.7764">
        <ele>677.11</ele>
        <time>2015-03-25T11:50:27Z</time>
      </trkpt>
      <trkpt lat="45.902" lon="2.77639">
        <ele>677.35</ele>
        <time>2015-03-25T11:51:18Z</time>
      </trkpt>
      <trkpt lat="45.902" lon="2.77639">
        <ele>677.68</ele>
        <time>2015-03-25T11:52:13Z</time>
      </trkpt>
      <trkpt lat="45.90198" lon="2.77644">
        <ele>677.73</ele>
        <time>2015-03-25T11:52:53Z</time>
      </trkpt>
      <trkpt lat="45.90199" lon="2.77642">
        <ele>677.65</ele>
        <time>2015-03-25T11:53:32Z</time>
      </trkpt>
      <trkpt lat="45.90199" lon="2.77643">
        <ele>678.77</ele>
        <time>2015-03-25T11:54:05Z</time>
      </trkpt>
      <trkpt lat="45.90199" lon="2.77646">
        <ele>677.86</ele>
        <time>2015-03-25T11:54:39Z</time>
      </trkpt>
      <trkpt lat="45.90198" lon="2.77649">
        <ele>678.06</ele>
        <time>2015-03-25T11:55:22Z</time>
      </trkpt>
      <trkpt lat="45.90198" lon="2.77647">
        <ele>678.53</ele>
        <time>2015-03-25T11:56:03Z</time>
      </trkpt>
      <trkpt lat="45.90198" lon="2.77647">
        <ele>678.85</ele>
        <time>2015-03-25T11:56:29Z</time>
      </trkpt>
      <trkpt lat="45.90199" lon="2.77646">
        <ele>678.81</ele>
        <time>2015-03-25T11:57:04Z</time>
      </trkpt>
      <trkpt lat="45.90199" lon="2.77646">
        <ele>679.43</ele>
        <time>2015-03-25T11:57:39Z</time>
      </trkpt>
      <trkpt lat="45.90198" lon="2.77643">
        <ele>679.53</ele>
        <time>2015-03-25T11:58:18Z</time>
      </trkpt>
      <trkpt lat="45.90199" lon="2.77642">
        <ele>679.32</ele>
        <time>2015-03-25T11:59:01Z</time>
      </trkpt>
      <trkpt lat="45.90199" lon="2.77642">
        <ele>679.65</ele>
        <time>2015-03-25T11:59:40Z</time>
      </trkpt>
      <trkpt lat="45.90199" lon="2.77642">
        <ele>678.6</ele>
        <time>2015-03-25T11:59:46Z</time>
      </trkpt>
      <trkpt lat="45.90198" lon="2.77643">
        <ele>679.58</ele>
        <time>2015-03-25T12:00:19Z</time>
      </trkpt>
      <trkpt lat="45.90199" lon="2.77643">
        <ele>679.34</ele>
        <time>2015-03-25T12:00:48Z</time>
      </trkpt>
      <trkpt lat="45.90198" lon="2.77644">
        <ele>679.86</ele>
        <time>2015-03-25T12:01:27Z</time>
      </trkpt>
      <trkpt lat="45.90199" lon="2.77645">
        <ele>680.09</ele>
        <time>2015-03-25T12:02:05Z</time>
      </trkpt>
      <trkpt lat="45.902" lon="2.77644">
        <ele>680.72</ele>
        <time>2015-03-25T12:02:42Z</time>
      </trkpt>
      <trkpt lat="45.902" lon="2.77644">
        <ele>680.39</ele>
        <time>2015-03-25T12:03:17Z</time>
      </trkpt>
      <trkpt lat="45.90199" lon="2.77644">
        <ele>680.72</ele>
        <time>2015-03-25T12:04:03Z</time>
      </trkpt>
      <trkpt lat="45.902" lon="2.77645">
        <ele>680.91</ele>
        <time>2015-03-25T12:04:39Z</time>
      </trkpt>
      <trkpt lat="45.902" lon="2.77645">
        <ele>680.44</ele>
        <time>2015-03-25T12:05:10Z</time>
      </trkpt>
      <trkpt lat="45.90201" lon="2.77645">
        <ele>681.04</ele>
        <time>2015-03-25T12:05:46Z</time>
      </trkpt>
      <trkpt lat="45.902" lon="2.77645">
        <ele>681.16</ele>
        <time>2015-03-25T12:06:16Z</time>
      </trkpt>
      <trkpt lat="45.90199" lon="2.77644">
        <ele>681.2</ele>
        <time>2015-03-25T12:06:53Z</time>
      </trkpt>
      <trkpt lat="45.902" lon="2.77642">
        <ele>681.63</ele>
        <time>2015-03-25T12:07:22Z</time>
      </trkpt>
      <trkpt lat="45.90201" lon="2.77641">
        <ele>681.77</ele>
        <time>2015-03-25T12:07:50Z</time>
      </trkpt>
      <trkpt lat="45.902" lon="2.7764">
        <ele>682.06</ele>
        <time>2015-03-25T12:08:12Z</time>
      </trkpt>
      <trkpt lat="45.902" lon="2.7764">
        <ele>681.83</ele>
        <time>2015-03-25T12:08:32Z</time>
      </trkpt>
      <trkpt lat="45.90202" lon="2.7764">
        <ele>682</ele>
        <time>2015-03-25T12:08:53Z</time>
      </trkpt>
      <trkpt lat="45.90202" lon="2.77639">
        <ele>682.69</ele>
        <time>2015-03-25T12:08:57Z</time>
      </trkpt>
      <trkpt lat="45.90201" lon="2.7764">
        <ele>682.26</ele>
        <time>2015-03-25T12:09:14Z</time>
      </trkpt>
      <trkpt lat="45.90201" lon="2.77641">
        <ele>682.27</ele>
        <time>2015-03-25T12:09:39Z</time>
      </trkpt>
      <trkpt lat="45.90203" lon="2.77641">
        <ele>682.1</ele>
        <time>2015-03-25T12:09:55Z</time>
      </trkpt>
      <trkpt lat="45.90201" lon="2.77642">
        <ele>682.59</ele>
        <time>2015-03-25T12:10:12Z</time>
      </trkpt>
      <trkpt lat="45.90201" lon="2.77641">
        <ele>682.47</ele>
        <time>2015-03-25T12:10:35Z</time>
      </trkpt>
      <trkpt lat="45.90202" lon="2.7764">
        <ele>682.7</ele>
        <time>2015-03-25T12:11:02Z</time>
      </trkpt>
      <trkpt lat="45.90202" lon="2.7764">
        <ele>682.24</ele>
        <time>2015-03-25T12:11:29Z</time>
      </trkpt>
      <trkpt lat="45.90202" lon="2.7764">
        <ele>682.66</ele>
        <time>2015-03-25T12:11:52Z</time>
      </trkpt>
      <trkpt lat="45.902" lon="2.77639">
        <ele>683.05</ele>
        <time>2015-03-25T12:12:15Z</time>
      </trkpt>
      <trkpt lat="45.902" lon="2.7764">
        <ele>683.09</ele>
        <time>2015-03-25T12:12:40Z</time>
      </trkpt>
      <trkpt lat="45.90201" lon="2.77641">
        <ele>682.85</ele>
        <time>2015-03-25T12:13:04Z</time>
      </trkpt>
      <trkpt lat="45.90201" lon="2.77644">
        <ele>682.77</ele>
        <time>2015-03-25T12:13:28Z</time>
      </trkpt>
      <trkpt lat="45.902" lon="2.77645">
        <ele>683.99</ele>
        <time>2015-03-25T12:13:55Z</time>
      </trkpt>
      <trkpt lat="45.90199" lon="2.77646">
        <ele>684.32</ele>
        <time>2015-03-25T12:14:24Z</time>
      </trkpt>
      <trkpt lat="45.90201" lon="2.77641">
        <ele>684.48</ele>
        <time>2015-03-25T12:14:41Z</time>
      </trkpt>
      <trkpt lat="45.90205" lon="2.77639">
        <ele>684.25</ele>
        <time>2015-03-25T12:15:03Z</time>
      </trkpt>
      <trkpt lat="45.90209" lon="2.77644">
        <ele>684.44</ele>
        <time>2015-03-25T12:15:09Z</time>
      </trkpt>
      <trkpt lat="45.90207" lon="2.77637">
        <ele>684.48</ele>
        <time>2015-03-25T12:15:40Z</time>
      </trkpt>
      <trkpt lat="45.90204" lon="2.77638">
        <ele>684.54</ele>
        <time>2015-03-25T12:15:42Z</time>
      </trkpt>
      <trkpt lat="45.90198" lon="2.77641">
        <ele>684.06</ele>
        <time>2015-03-25T12:16:02Z</time>
      </trkpt>
      <trkpt lat="45.90199" lon="2.77646">
        <ele>683.57</ele>
        <time>2015-03-25T12:16:17Z</time>
      </trkpt>
      <trkpt lat="45.90193" lon="2.77643">
        <ele>683.56</ele>
        <time>2015-03-25T12:16:33Z</time>
      </trkpt>
      <trkpt lat="45.90191" lon="2.77633">
        <ele>683.83</ele>
        <time>2015-03-25T12:16:48Z</time>
      </trkpt>
      <trkpt lat="45.90191" lon="2.77629">
        <ele>682.73</ele>
        <time>2015-03-25T12:16:52Z</time>
      </trkpt>
      <trkpt lat="45.90215" lon="2.77611">
        <ele>683.3</ele>
        <time>2015-03-25T12:17:11Z</time>
      </trkpt>
      <trkpt lat="45.90227" lon="2.77604">
        <ele>683.53</ele>
        <time>2015-03-25T12:17:25Z</time>
      </trkpt>
      <trkpt lat="45.90243" lon="2.77593">
        <ele>682.66</ele>
        <time>2015-03-25T12:17:40Z</time>
      </trkpt>
      <trkpt lat="45.9026" lon="2.77582">
        <ele>683.12</ele>
        <time>2015-03-25T12:17:55Z</time>
      </trkpt>
      <trkpt lat="45.90282" lon="2.7757">
        <ele>682.74</ele>
        <time>2015-03-25T12:18:13Z</time>
      </trkpt>
      <trkpt lat="45.90297" lon="2.77565">
        <ele>682.31</ele>
        <time>2015-03-25T12:18:27Z</time>
      </trkpt>
      <trkpt lat="45.90321" lon="2.77557">
        <ele>682.83</ele>
        <time>2015-03-25T12:18:44Z</time>
      </trkpt>
      <trkpt lat="45.90351" lon="2.77537">
        <ele>683.02</ele>
        <time>2015-03-25T12:19:09Z</time>
      </trkpt>
      <trkpt lat="45.90367" lon="2.77532">
        <ele>683.59</ele>
        <time>2015-03-25T12:19:26Z</time>
      </trkpt>
      <trkpt lat="45.9038" lon="2.77527">
        <ele>683.57</ele>
        <time>2015-03-25T12:19:40Z</time>
      </trkpt>
      <trkpt lat="45.90399" lon="2.77523">
        <ele>683.76</ele>
        <time>2015-03-25T12:19:55Z</time>
      </trkpt>
      <trkpt lat="45.90425" lon="2.77523">
        <ele>682.65</ele>
        <time>2015-03-25T12:20:14Z</time>
      </trkpt>
      <trkpt lat="45.90449" lon="2.77542">
        <ele>682.42</ele>
        <time>2015-03-25T12:20:35Z</time>
      </trkpt>
      <trkpt lat="45.90461" lon="2.77565">
        <ele>682.47</ele>
        <time>2015-03-25T12:20:52Z</time>
      </trkpt>
      <trkpt lat="45.90461" lon="2.77568">
        <ele>682.63</ele>
        <time>2015-03-25T12:20:54Z</time>
      </trkpt>
      <trkpt lat="45.90467" lon="2.77577">
        <ele>681.44</ele>
        <time>2015-03-25T12:21:01Z</time>
      </trkpt>
      <trkpt lat="45.90483" lon="2.77606">
        <ele>682.44</ele>
        <time>2015-03-25T12:21:20Z</time>
      </trkpt>
      <trkpt lat="45.905" lon="2.77638">
        <ele>681.19</ele>
        <time>2015-03-25T12:21:40Z</time>
      </trkpt>
      <trkpt lat="45.90508" lon="2.77674">
        <ele>680.32</ele>
        <time>2015-03-25T12:21:59Z</time>
      </trkpt>
      <trkpt lat="45.90515" lon="2.77702">
        <ele>680.11</ele>
        <time>2015-03-25T12:22:15Z</time>
      </trkpt>
      <trkpt lat="45.90519" lon="2.77726">
        <ele>678.78</ele>
        <time>2015-03-25T12:22:30Z</time>
      </trkpt>
      <trkpt lat="45.90521" lon="2.77751">
        <ele>679.25</ele>
        <time>2015-03-25T12:22:46Z</time>
      </trkpt>
      <trkpt lat="45.90521" lon="2.77761">
        <ele>677.77</ele>
        <time>2015-03-25T12:22:51Z</time>
      </trkpt>
      <trkpt lat="45.90524" lon="2.77765">
        <ele>678</ele>
        <time>2015-03-25T12:22:55Z</time>
      </trkpt>
      <trkpt lat="45.90547" lon="2.77768">
        <ele>678.21</ele>
        <time>2015-03-25T12:23:15Z</time>
      </trkpt>
      <trkpt lat="45.90576" lon="2.77773">
        <ele>678.45</ele>
        <time>2015-03-25T12:23:39Z</time>
      </trkpt>
      <trkpt lat="45.90593" lon="2.77779">
        <ele>679.3</ele>
        <time>2015-03-25T12:23:54Z</time>
      </trkpt>
      <trkpt lat="45.90618" lon="2.77789">
        <ele>680.21</ele>
        <time>2015-03-25T12:24:13Z</time>
      </trkpt>
      <trkpt lat="45.90645" lon="2.77801">
        <ele>681.69</ele>
        <time>2015-03-25T12:24:35Z</time>
      </trkpt>
      <trkpt lat="45.90659" lon="2.77809">
        <ele>681.94</ele>
        <time>2015-03-25T12:24:48Z</time>
      </trkpt>
      <trkpt lat="45.90675" lon="2.77821">
        <ele>683.17</ele>
        <time>2015-03-25T12:25:03Z</time>
      </trkpt>
      <trkpt lat="45.90683" lon="2.7782">
        <ele>683.53</ele>
        <time>2015-03-25T12:25:07Z</time>
      </trkpt>
      <trkpt lat="45.90687" lon="2.77822">
        <ele>682.38</ele>
        <time>2015-03-25T12:25:11Z</time>
      </trkpt>
      <trkpt lat="45.90703" lon="2.7783">
        <ele>684.19</ele>
        <time>2015-03-25T12:25:27Z</time>
      </trkpt>
      <trkpt lat="45.90721" lon="2.77838">
        <ele>685.87</ele>
        <time>2015-03-25T12:25:42Z</time>
      </trkpt>
      <trkpt lat="45.9072" lon="2.7784">
        <ele>685.8</ele>
        <time>2015-03-25T12:25:56Z</time>
      </trkpt>
      <trkpt lat="45.9072" lon="2.77839">
        <ele>685.95</ele>
        <time>2015-03-25T12:26:18Z</time>
      </trkpt>
      <trkpt lat="45.90719" lon="2.7784">
        <ele>685.52</ele>
        <time>2015-03-25T12:26:39Z</time>
      </trkpt>
      <trkpt lat="45.90719" lon="2.77838">
        <ele>685.56</ele>
        <time>2015-03-25T12:27:06Z</time>
      </trkpt>
      <trkpt lat="45.90732" lon="2.77842">
        <ele>686.48</ele>
        <time>2015-03-25T12:27:22Z</time>
      </trkpt>
      <trkpt lat="45.9075" lon="2.77848">
        <ele>686.86</ele>
        <time>2015-03-25T12:27:38Z</time>
      </trkpt>
      <trkpt lat="45.90765" lon="2.77854">
        <ele>686.84</ele>
        <time>2015-03-25T12:27:50Z</time>
      </trkpt>
      <trkpt lat="45.90771" lon="2.77855">
        <ele>687.13</ele>
        <time>2015-03-25T12:27:54Z</time>
      </trkpt>
      <trkpt lat="45.90794" lon="2.77866">
        <ele>686.61</ele>
        <time>2015-03-25T12:28:14Z</time>
      </trkpt>
      <trkpt lat="45.90814" lon="2.77883">
        <ele>685.77</ele>
        <time>2015-03-25T12:28:31Z</time>
      </trkpt>
      <trkpt lat="45.90819" lon="2.77887">
        <ele>685.76</ele>
        <time>2015-03-25T12:28:36Z</time>
      </trkpt>
      <trkpt lat="45.90826" lon="2.77883">
        <ele>686.47</ele>
        <time>2015-03-25T12:28:42Z</time>
      </trkpt>
      <trkpt lat="45.9084" lon="2.77868">
        <ele>688.35</ele>
        <time>2015-03-25T12:28:57Z</time>
      </trkpt>
      <trkpt lat="45.90851" lon="2.77859">
        <ele>688.95</ele>
        <time>2015-03-25T12:29:08Z</time>
      </trkpt>
      <trkpt lat="45.90866" lon="2.77849">
        <ele>689.42</ele>
        <time>2015-03-25T12:29:22Z</time>
      </trkpt>
      <trkpt lat="45.90881" lon="2.77837">
        <ele>689.95</ele>
        <time>2015-03-25T12:29:37Z</time>
      </trkpt>
      <trkpt lat="45.90884" lon="2.77833">
        <ele>690.76</ele>
        <time>2015-03-25T12:29:41Z</time>
      </trkpt>
      <trkpt lat="45.90887" lon="2.77829">
        <ele>691.07</ele>
        <time>2015-03-25T12:29:45Z</time>
      </trkpt>
      <trkpt lat="45.90889" lon="2.77822">
        <ele>691.43</ele>
        <time>2015-03-25T12:29:49Z</time>
      </trkpt>
      <trkpt lat="45.90896" lon="2.778">
        <ele>692.76</ele>
        <time>2015-03-25T12:30:04Z</time>
      </trkpt>
      <trkpt lat="45.90903" lon="2.77784">
        <ele>692.27</ele>
        <time>2015-03-25T12:30:17Z</time>
      </trkpt>
      <trkpt lat="45.9091" lon="2.77771">
        <ele>693.1</ele>
        <time>2015-03-25T12:30:29Z</time>
      </trkpt>
      <trkpt lat="45.9092" lon="2.7775">
        <ele>694.83</ele>
        <time>2015-03-25T12:30:44Z</time>
      </trkpt>
      <trkpt lat="45.90927" lon="2.77735">
        <ele>696.3</ele>
        <time>2015-03-25T12:30:58Z</time>
      </trkpt>
      <trkpt lat="45.90937" lon="2.77721">
        <ele>697.15</ele>
        <time>2015-03-25T12:31:13Z</time>
      </trkpt>
      <trkpt lat="45.90945" lon="2.77699">
        <ele>699.58</ele>
        <time>2015-03-25T12:31:32Z</time>
      </trkpt>
      <trkpt lat="45.90953" lon="2.77681">
        <ele>701.9</ele>
        <time>2015-03-25T12:31:48Z</time>
      </trkpt>
      <trkpt lat="45.90961" lon="2.77664">
        <ele>703.76</ele>
        <time>2015-03-25T12:32:04Z</time>
      </trkpt>
      <trkpt lat="45.90969" lon="2.77648">
        <ele>705.59</ele>
        <time>2015-03-25T12:32:19Z</time>
      </trkpt>
      <trkpt lat="45.90974" lon="2.77632">
        <ele>707.64</ele>
        <time>2015-03-25T12:32:32Z</time>
      </trkpt>
      <trkpt lat="45.90983" lon="2.77615">
        <ele>709.89</ele>
        <time>2015-03-25T12:32:51Z</time>
      </trkpt>
      <trkpt lat="45.90991" lon="2.77602">
        <ele>713.03</ele>
        <time>2015-03-25T12:33:08Z</time>
      </trkpt>
      <trkpt lat="45.91004" lon="2.7759">
        <ele>716.18</ele>
        <time>2015-03-25T12:33:25Z</time>
      </trkpt>
      <trkpt lat="45.91021" lon="2.77577">
        <ele>719.33</ele>
        <time>2015-03-25T12:33:47Z</time>
      </trkpt>
      <trkpt lat="45.91035" lon="2.77571">
        <ele>722.45</ele>
        <time>2015-03-25T12:34:07Z</time>
      </trkpt>
      <trkpt lat="45.91048" lon="2.77564">
        <ele>725.6</ele>
        <time>2015-03-25T12:34:24Z</time>
      </trkpt>
      <trkpt lat="45.91066" lon="2.77562">
        <ele>728.01</ele>
        <time>2015-03-25T12:34:43Z</time>
      </trkpt>
      <trkpt lat="45.91084" lon="2.7756">
        <ele>730.9</ele>
        <time>2015-03-25T12:35:01Z</time>
      </trkpt>
      <trkpt lat="45.91092" lon="2.77547">
        <ele>734</ele>
        <time>2015-03-25T12:35:17Z</time>
      </trkpt>
      <trkpt lat="45.91084" lon="2.77534">
        <ele>737.15</ele>
        <time>2015-03-25T12:35:33Z</time>
      </trkpt>
      <trkpt lat="45.91068" lon="2.77522">
        <ele>737.7</ele>
        <time>2015-03-25T12:35:51Z</time>
      </trkpt>
      <trkpt lat="45.91059" lon="2.77518">
        <ele>739.09</ele>
        <time>2015-03-25T12:35:59Z</time>
      </trkpt>
      <trkpt lat="45.91054" lon="2.77516">
        <ele>738.45</ele>
        <time>2015-03-25T12:36:03Z</time>
      </trkpt>
      <trkpt lat="45.91043" lon="2.77512">
        <ele>738.95</ele>
        <time>2015-03-25T12:36:18Z</time>
      </trkpt>
      <trkpt lat="45.91038" lon="2.77507">
        <ele>738.27</ele>
        <time>2015-03-25T12:36:44Z</time>
      </trkpt>
      <trkpt lat="45.91039" lon="2.77505">
        <ele>738.66</ele>
        <time>2015-03-25T12:37:06Z</time>
      </trkpt>
      <trkpt lat="45.91038" lon="2.77505">
        <ele>738.31</ele>
        <time>2015-03-25T12:37:40Z</time>
      </trkpt>
      <trkpt lat="45.91032" lon="2.77509">
        <ele>737.97</ele>
        <time>2015-03-25T12:38:07Z</time>
      </trkpt>
      <trkpt lat="45.91015" lon="2.77507">
        <ele>737.13</ele>
        <time>2015-03-25T12:38:26Z</time>
      </trkpt>
      <trkpt lat="45.91003" lon="2.77503">
        <ele>736.82</ele>
        <time>2015-03-25T12:38:40Z</time>
      </trkpt>
      <trkpt lat="45.90991" lon="2.77497">
        <ele>736.67</ele>
        <time>2015-03-25T12:38:55Z</time>
      </trkpt>
      <trkpt lat="45.90982" lon="2.77493">
        <ele>736.27</ele>
        <time>2015-03-25T12:39:05Z</time>
      </trkpt>
      <trkpt lat="45.90967" lon="2.77481">
        <ele>736.06</ele>
        <time>2015-03-25T12:39:23Z</time>
      </trkpt>
      <trkpt lat="45.90953" lon="2.77468">
        <ele>735.79</ele>
        <time>2015-03-25T12:39:41Z</time>
      </trkpt>
      <trkpt lat="45.90941" lon="2.77457">
        <ele>734.68</ele>
        <time>2015-03-25T12:40:01Z</time>
      </trkpt>
      <trkpt lat="45.90937" lon="2.77452">
        <ele>735.18</ele>
        <time>2015-03-25T12:40:22Z</time>
      </trkpt>
      <trkpt lat="45.9093" lon="2.77446">
        <ele>734.37</ele>
        <time>2015-03-25T12:40:50Z</time>
      </trkpt>
      <trkpt lat="45.90913" lon="2.77427">
        <ele>732.83</ele>
        <time>2015-03-25T12:41:13Z</time>
      </trkpt>
      <trkpt lat="45.90891" lon="2.77407">
        <ele>731.67</ele>
        <time>2015-03-25T12:41:37Z</time>
      </trkpt>
      <trkpt lat="45.90877" lon="2.77392">
        <ele>731.02</ele>
        <time>2015-03-25T12:41:53Z</time>
      </trkpt>
      <trkpt lat="45.90862" lon="2.77378">
        <ele>730.72</ele>
        <time>2015-03-25T12:42:10Z</time>
      </trkpt>
      <trkpt lat="45.90851" lon="2.7736">
        <ele>730.92</ele>
        <time>2015-03-25T12:42:27Z</time>
      </trkpt>
      <trkpt lat="45.9084" lon="2.77341">
        <ele>730.73</ele>
        <time>2015-03-25T12:42:44Z</time>
      </trkpt>
      <trkpt lat="45.90825" lon="2.7733">
        <ele>731.52</ele>
        <time>2015-03-25T12:43:02Z</time>
      </trkpt>
      <trkpt lat="45.90813" lon="2.7733">
        <ele>733.14</ele>
        <time>2015-03-25T12:43:23Z</time>
      </trkpt>
      <trkpt lat="45.90805" lon="2.77336">
        <ele>732.77</ele>
        <time>2015-03-25T12:43:41Z</time>
      </trkpt>
      <trkpt lat="45.90794" lon="2.77335">
        <ele>731.1</ele>
        <time>2015-03-25T12:44:00Z</time>
      </trkpt>
      <trkpt lat="45.90788" lon="2.77344">
        <ele>730.53</ele>
        <time>2015-03-25T12:44:15Z</time>
      </trkpt>
      <trkpt lat="45.90791" lon="2.7734">
        <ele>730.52</ele>
        <time>2015-03-25T12:44:35Z</time>
      </trkpt>
      <trkpt lat="45.90794" lon="2.77333">
        <ele>731.04</ele>
        <time>2015-03-25T12:44:50Z</time>
      </trkpt>
      <trkpt lat="45.908" lon="2.77333">
        <ele>732.78</ele>
        <time>2015-03-25T12:45:04Z</time>
      </trkpt>
      <trkpt lat="45.90809" lon="2.77321">
        <ele>731.98</ele>
        <time>2015-03-25T12:45:22Z</time>
      </trkpt>
      <trkpt lat="45.90814" lon="2.7731">
        <ele>730.76</ele>
        <time>2015-03-25T12:45:37Z</time>
      </trkpt>
      <trkpt lat="45.9081" lon="2.77296">
        <ele>729.73</ele>
        <time>2015-03-25T12:45:57Z</time>
      </trkpt>
      <trkpt lat="45.90801" lon="2.77279">
        <ele>728.18</ele>
        <time>2015-03-25T12:46:17Z</time>
      </trkpt>
      <trkpt lat="45.90794" lon="2.77263">
        <ele>725.91</ele>
        <time>2015-03-25T12:46:37Z</time>
      </trkpt>
      <trkpt lat="45.90792" lon="2.77246">
        <ele>722.98</ele>
        <time>2015-03-25T12:46:55Z</time>
      </trkpt>
      <trkpt lat="45.90793" lon="2.77219">
        <ele>721.11</ele>
        <time>2015-03-25T12:47:16Z</time>
      </trkpt>
      <trkpt lat="45.90792" lon="2.77199">
        <ele>719.02</ele>
        <time>2015-03-25T12:47:28Z</time>
      </trkpt>
      <trkpt lat="45.90795" lon="2.77171">
        <ele>717.35</ele>
        <time>2015-03-25T12:47:44Z</time>
      </trkpt>
      <trkpt lat="45.90796" lon="2.77146">
        <ele>715.85</ele>
        <time>2015-03-25T12:48:03Z</time>
      </trkpt>
      <trkpt lat="45.90793" lon="2.77119">
        <ele>713.39</ele>
        <time>2015-03-25T12:48:21Z</time>
      </trkpt>
      <trkpt lat="45.9079" lon="2.77096">
        <ele>710.72</ele>
        <time>2015-03-25T12:48:39Z</time>
      </trkpt>
      <trkpt lat="45.90783" lon="2.77072">
        <ele>708.3</ele>
        <time>2015-03-25T12:48:58Z</time>
      </trkpt>
      <trkpt lat="45.90783" lon="2.77071">
        <ele>708.12</ele>
        <time>2015-03-25T12:48:59Z</time>
      </trkpt>
      <trkpt lat="45.90785" lon="2.77058">
        <ele>707.35</ele>
        <time>2015-03-25T12:49:13Z</time>
      </trkpt>
      <trkpt lat="45.90787" lon="2.77056">
        <ele>708.13</ele>
        <time>2015-03-25T12:49:36Z</time>
      </trkpt>
      <trkpt lat="45.90786" lon="2.77057">
        <ele>708.61</ele>
        <time>2015-03-25T12:50:02Z</time>
      </trkpt>
      <trkpt lat="45.90781" lon="2.77051">
        <ele>708.15</ele>
        <time>2015-03-25T12:50:30Z</time>
      </trkpt>
      <trkpt lat="45.90776" lon="2.77045">
        <ele>705.03</ele>
        <time>2015-03-25T12:50:39Z</time>
      </trkpt>
      <trkpt lat="45.90775" lon="2.77045">
        <ele>705.23</ele>
        <time>2015-03-25T12:50:40Z</time>
      </trkpt>
      <trkpt lat="45.90768" lon="2.77025">
        <ele>703.72</ele>
        <time>2015-03-25T12:50:57Z</time>
      </trkpt>
      <trkpt lat="45.90771" lon="2.77">
        <ele>701.91</ele>
        <time>2015-03-25T12:51:14Z</time>
      </trkpt>
      <trkpt lat="45.90772" lon="2.76996">
        <ele>700.98</ele>
        <time>2015-03-25T12:51:17Z</time>
      </trkpt>
      <trkpt lat="45.90773" lon="2.7699">
        <ele>700.66</ele>
        <time>2015-03-25T12:51:20Z</time>
      </trkpt>
      <trkpt lat="45.90774" lon="2.7698">
        <ele>700.02</ele>
        <time>2015-03-25T12:51:26Z</time>
      </trkpt>
      <trkpt lat="45.90775" lon="2.76977">
        <ele>699.15</ele>
        <time>2015-03-25T12:51:28Z</time>
      </trkpt>
      <trkpt lat="45.90778" lon="2.76969">
        <ele>699.82</ele>
        <time>2015-03-25T12:51:33Z</time>
      </trkpt>
      <trkpt lat="45.90778" lon="2.76966">
        <ele>698.58</ele>
        <time>2015-03-25T12:51:35Z</time>
      </trkpt>
      <trkpt lat="45.90777" lon="2.76961">
        <ele>698.83</ele>
        <time>2015-03-25T12:51:38Z</time>
      </trkpt>
      <trkpt lat="45.90775" lon="2.76956">
        <ele>697.95</ele>
        <time>2015-03-25T12:51:41Z</time>
      </trkpt>
      <trkpt lat="45.90758" lon="2.76947">
        <ele>695.8</ele>
        <time>2015-03-25T12:51:58Z</time>
      </trkpt>
      <trkpt lat="45.90755" lon="2.76945">
        <ele>696.17</ele>
        <time>2015-03-25T12:52:03Z</time>
      </trkpt>
      <trkpt lat="45.90731" lon="2.76933">
        <ele>692.46</ele>
        <time>2015-03-25T12:52:25Z</time>
      </trkpt>
      <trkpt lat="45.90718" lon="2.76923">
        <ele>690.59</ele>
        <time>2015-03-25T12:52:39Z</time>
      </trkpt>
      <trkpt lat="45.90705" lon="2.76917">
        <ele>689.29</ele>
        <time>2015-03-25T12:52:50Z</time>
      </trkpt>
      <trkpt lat="45.90694" lon="2.76902">
        <ele>687.42</ele>
        <time>2015-03-25T12:53:04Z</time>
      </trkpt>
      <trkpt lat="45.90687" lon="2.76866">
        <ele>687.17</ele>
        <time>2015-03-25T12:53:23Z</time>
      </trkpt>
      <trkpt lat="45.90687" lon="2.76862">
        <ele>686.7</ele>
        <time>2015-03-25T12:53:25Z</time>
      </trkpt>
      <trkpt lat="45.90686" lon="2.76859">
        <ele>686.55</ele>
        <time>2015-03-25T12:53:27Z</time>
      </trkpt>
      <trkpt lat="45.90681" lon="2.76848">
        <ele>686.01</ele>
        <time>2015-03-25T12:53:34Z</time>
      </trkpt>
      <trkpt lat="45.90678" lon="2.76826">
        <ele>685.99</ele>
        <time>2015-03-25T12:53:49Z</time>
      </trkpt>
      <trkpt lat="45.90681" lon="2.76823">
        <ele>685.95</ele>
        <time>2015-03-25T12:54:12Z</time>
      </trkpt>
      <trkpt lat="45.90676" lon="2.76813">
        <ele>686.05</ele>
        <time>2015-03-25T12:54:31Z</time>
      </trkpt>
      <trkpt lat="45.90665" lon="2.7679">
        <ele>684.69</ele>
        <time>2015-03-25T12:54:48Z</time>
      </trkpt>
      <trkpt lat="45.90649" lon="2.76771">
        <ele>683.57</ele>
        <time>2015-03-25T12:55:08Z</time>
      </trkpt>
      <trkpt lat="45.9062" lon="2.76774">
        <ele>681.65</ele>
        <time>2015-03-25T12:55:32Z</time>
      </trkpt>
      <trkpt lat="45.90599" lon="2.76776">
        <ele>679.86</ele>
        <time>2015-03-25T12:55:49Z</time>
      </trkpt>
      <trkpt lat="45.90584" lon="2.76782">
        <ele>679.12</ele>
        <time>2015-03-25T12:56:05Z</time>
      </trkpt>
      <trkpt lat="45.90561" lon="2.76789">
        <ele>677.03</ele>
        <time>2015-03-25T12:56:24Z</time>
      </trkpt>
      <trkpt lat="45.90557" lon="2.76789">
        <ele>675.75</ele>
        <time>2015-03-25T12:56:27Z</time>
      </trkpt>
      <trkpt lat="45.9054" lon="2.76798">
        <ele>674.86</ele>
        <time>2015-03-25T12:56:42Z</time>
      </trkpt>
      <trkpt lat="45.90522" lon="2.76818">
        <ele>673.94</ele>
        <time>2015-03-25T12:57:01Z</time>
      </trkpt>
      <trkpt lat="45.90519" lon="2.76838">
        <ele>674.18</ele>
        <time>2015-03-25T12:57:16Z</time>
      </trkpt>
      <trkpt lat="45.9052" lon="2.76864">
        <ele>674.57</ele>
        <time>2015-03-25T12:57:32Z</time>
      </trkpt>
      <trkpt lat="45.90514" lon="2.76884">
        <ele>675.54</ele>
        <time>2015-03-25T12:57:48Z</time>
      </trkpt>
      <trkpt lat="45.90511" lon="2.76891">
        <ele>675.66</ele>
        <time>2015-03-25T12:58:15Z</time>
      </trkpt>
      <trkpt lat="45.90499" lon="2.76907">
        <ele>676.68</ele>
        <time>2015-03-25T12:58:31Z</time>
      </trkpt>
      <trkpt lat="45.90483" lon="2.76928">
        <ele>676.31</ele>
        <time>2015-03-25T12:58:46Z</time>
      </trkpt>
      <trkpt lat="45.90465" lon="2.76951">
        <ele>675.78</ele>
        <time>2015-03-25T12:59:03Z</time>
      </trkpt>
      <trkpt lat="45.90453" lon="2.76941">
        <ele>674.51</ele>
        <time>2015-03-25T12:59:15Z</time>
      </trkpt>
      <trkpt lat="45.90442" lon="2.76932">
        <ele>674.01</ele>
        <time>2015-03-25T12:59:27Z</time>
      </trkpt>
      <trkpt lat="45.90436" lon="2.76927">
        <ele>674.66</ele>
        <time>2015-03-25T12:59:33Z</time>
      </trkpt>
      <trkpt lat="45.90419" lon="2.76924">
        <ele>672.68</ele>
        <time>2015-03-25T12:59:47Z</time>
      </trkpt>
      <trkpt lat="45.90401" lon="2.76928">
        <ele>674.25</ele>
        <time>2015-03-25T13:00:02Z</time>
      </trkpt>
      <trkpt lat="45.9038" lon="2.76934">
        <ele>673.34</ele>
        <time>2015-03-25T13:00:19Z</time>
      </trkpt>
      <trkpt lat="45.90364" lon="2.76939">
        <ele>672.82</ele>
        <time>2015-03-25T13:00:33Z</time>
      </trkpt>
      <trkpt lat="45.90343" lon="2.76944">
        <ele>672.26</ele>
        <time>2015-03-25T13:00:49Z</time>
      </trkpt>
      <trkpt lat="45.90325" lon="2.76948">
        <ele>671.8</ele>
        <time>2015-03-25T13:01:03Z</time>
      </trkpt>
      <trkpt lat="45.90307" lon="2.76953">
        <ele>671.55</ele>
        <time>2015-03-25T13:01:18Z</time>
      </trkpt>
      <trkpt lat="45.90301" lon="2.76955">
        <ele>671.7</ele>
        <time>2015-03-25T13:01:25Z</time>
      </trkpt>
      <trkpt lat="45.90282" lon="2.76959">
        <ele>669.93</ele>
        <time>2015-03-25T13:01:39Z</time>
      </trkpt>
      <trkpt lat="45.90276" lon="2.7696">
        <ele>669.57</ele>
        <time>2015-03-25T13:01:45Z</time>
      </trkpt>
      <trkpt lat="45.90272" lon="2.76959">
        <ele>668.11</ele>
        <time>2015-03-25T13:01:48Z</time>
      </trkpt>
      <trkpt lat="45.90257" lon="2.76951">
        <ele>666.48</ele>
        <time>2015-03-25T13:02:03Z</time>
      </trkpt>
      <trkpt lat="45.90246" lon="2.76935">
        <ele>663.94</ele>
        <time>2015-03-25T13:02:17Z</time>
      </trkpt>
      <trkpt lat="45.90231" lon="2.76913">
        <ele>663.03</ele>
        <time>2015-03-25T13:02:35Z</time>
      </trkpt>
      <trkpt lat="45.90221" lon="2.76897">
        <ele>660.32</ele>
        <time>2015-03-25T13:02:50Z</time>
      </trkpt>
      <trkpt lat="45.90212" lon="2.76883">
        <ele>657.73</ele>
        <time>2015-03-25T13:03:03Z</time>
      </trkpt>
      <trkpt lat="45.90197" lon="2.76862">
        <ele>655.74</ele>
        <time>2015-03-25T13:03:24Z</time>
      </trkpt>
      <trkpt lat="45.90187" lon="2.76848">
        <ele>652.05</ele>
        <time>2015-03-25T13:03:37Z</time>
      </trkpt>
      <trkpt lat="45.9018" lon="2.76828">
        <ele>649.04</ele>
        <time>2015-03-25T13:03:53Z</time>
      </trkpt>
      <trkpt lat="45.90182" lon="2.76821">
        <ele>648.74</ele>
        <time>2015-03-25T13:03:57Z</time>
      </trkpt>
      <trkpt lat="45.90183" lon="2.76818">
        <ele>648.12</ele>
        <time>2015-03-25T13:03:59Z</time>
      </trkpt>
      <trkpt lat="45.90191" lon="2.76812">
        <ele>644.98</ele>
        <time>2015-03-25T13:04:09Z</time>
      </trkpt>
      <trkpt lat="45.90201" lon="2.76806">
        <ele>642.83</ele>
        <time>2015-03-25T13:04:23Z</time>
      </trkpt>
      <trkpt lat="45.90216" lon="2.768">
        <ele>639.81</ele>
        <time>2015-03-25T13:04:38Z</time>
      </trkpt>
      <trkpt lat="45.90229" lon="2.76785">
        <ele>638.52</ele>
        <time>2015-03-25T13:04:53Z</time>
      </trkpt>
      <trkpt lat="45.90224" lon="2.76765">
        <ele>639.3</ele>
        <time>2015-03-25T13:05:11Z</time>
      </trkpt>
      <trkpt lat="45.90223" lon="2.76764">
        <ele>638.9</ele>
        <time>2015-03-25T13:05:12Z</time>
      </trkpt>
      <trkpt lat="45.90222" lon="2.76761">
        <ele>638.88</ele>
        <time>2015-03-25T13:05:15Z</time>
      </trkpt>
      <trkpt lat="45.90219" lon="2.76743">
        <ele>638.71</ele>
        <time>2015-03-25T13:05:27Z</time>
      </trkpt>
      <trkpt lat="45.90218" lon="2.76711">
        <ele>640.13</ele>
        <time>2015-03-25T13:05:49Z</time>
      </trkpt>
      <trkpt lat="45.90221" lon="2.76686">
        <ele>642.09</ele>
        <time>2015-03-25T13:06:05Z</time>
      </trkpt>
      <trkpt lat="45.90225" lon="2.76673">
        <ele>642.12</ele>
        <time>2015-03-25T13:06:14Z</time>
      </trkpt>
      <trkpt lat="45.90226" lon="2.76663">
        <ele>641.74</ele>
        <time>2015-03-25T13:06:19Z</time>
      </trkpt>
      <trkpt lat="45.90217" lon="2.76639">
        <ele>640.21</ele>
        <time>2015-03-25T13:06:36Z</time>
      </trkpt>
      <trkpt lat="45.90207" lon="2.7662">
        <ele>639.27</ele>
        <time>2015-03-25T13:06:50Z</time>
      </trkpt>
      <trkpt lat="45.90201" lon="2.76593">
        <ele>639.93</ele>
        <time>2015-03-25T13:07:08Z</time>
      </trkpt>
      <trkpt lat="45.90194" lon="2.76567">
        <ele>638.78</ele>
        <time>2015-03-25T13:07:22Z</time>
      </trkpt>
      <trkpt lat="45.90185" lon="2.76541">
        <ele>635.63</ele>
        <time>2015-03-25T13:07:39Z</time>
      </trkpt>
      <trkpt lat="45.90184" lon="2.76533">
        <ele>633.99</ele>
        <time>2015-03-25T13:07:44Z</time>
      </trkpt>
      <trkpt lat="45.90182" lon="2.76512">
        <ele>630.83</ele>
        <time>2015-03-25T13:07:58Z</time>
      </trkpt>
      <trkpt lat="45.90181" lon="2.76509">
        <ele>630.04</ele>
        <time>2015-03-25T13:08:00Z</time>
      </trkpt>
      <trkpt lat="45.90182" lon="2.76486">
        <ele>627.21</ele>
        <time>2015-03-25T13:08:15Z</time>
      </trkpt>
      <trkpt lat="45.90183" lon="2.76471">
        <ele>625.67</ele>
        <time>2015-03-25T13:08:24Z</time>
      </trkpt>
      <trkpt lat="45.90189" lon="2.76447">
        <ele>622.15</ele>
        <time>2015-03-25T13:08:39Z</time>
      </trkpt>
      <trkpt lat="45.90194" lon="2.76431">
        <ele>621.13</ele>
        <time>2015-03-25T13:08:50Z</time>
      </trkpt>
      <trkpt lat="45.90201" lon="2.76414">
        <ele>619.03</ele>
        <time>2015-03-25T13:09:03Z</time>
      </trkpt>
      <trkpt lat="45.90204" lon="2.76406">
        <ele>619.1</ele>
        <time>2015-03-25T13:09:08Z</time>
      </trkpt>
      <trkpt lat="45.90209" lon="2.76392">
        <ele>617.53</ele>
        <time>2015-03-25T13:09:17Z</time>
      </trkpt>
      <trkpt lat="45.9021" lon="2.76389">
        <ele>617.76</ele>
        <time>2015-03-25T13:09:19Z</time>
      </trkpt>
      <trkpt lat="45.90218" lon="2.76368">
        <ele>614.24</ele>
        <time>2015-03-25T13:09:34Z</time>
      </trkpt>
      <trkpt lat="45.90225" lon="2.76348">
        <ele>612.06</ele>
        <time>2015-03-25T13:09:48Z</time>
      </trkpt>
      <trkpt lat="45.90232" lon="2.76329">
        <ele>610.17</ele>
        <time>2015-03-25T13:10:02Z</time>
      </trkpt>
      <trkpt lat="45.90238" lon="2.76312">
        <ele>608.26</ele>
        <time>2015-03-25T13:10:14Z</time>
      </trkpt>
      <trkpt lat="45.90239" lon="2.76308">
        <ele>608.08</ele>
        <time>2015-03-25T13:10:17Z</time>
      </trkpt>
      <trkpt lat="45.90251" lon="2.76286">
        <ele>604.95</ele>
        <time>2015-03-25T13:10:33Z</time>
      </trkpt>
      <trkpt lat="45.90256" lon="2.76273">
        <ele>603.41</ele>
        <time>2015-03-25T13:10:44Z</time>
      </trkpt>
      <trkpt lat="45.90265" lon="2.76259">
        <ele>601.06</ele>
        <time>2015-03-25T13:10:57Z</time>
      </trkpt>
      <trkpt lat="45.90277" lon="2.76246">
        <ele>599.61</ele>
        <time>2015-03-25T13:11:10Z</time>
      </trkpt>
      <trkpt lat="45.90292" lon="2.76237">
        <ele>598.09</ele>
        <time>2015-03-25T13:11:23Z</time>
      </trkpt>
      <trkpt lat="45.90294" lon="2.76234">
        <ele>597.94</ele>
        <time>2015-03-25T13:11:25Z</time>
      </trkpt>
      <trkpt lat="45.90304" lon="2.76221">
        <ele>597.06</ele>
        <time>2015-03-25T13:11:38Z</time>
      </trkpt>
      <trkpt lat="45.90306" lon="2.76217">
        <ele>596.12</ele>
        <time>2015-03-25T13:11:41Z</time>
      </trkpt>
      <trkpt lat="45.90307" lon="2.762">
        <ele>594.15</ele>
        <time>2015-03-25T13:11:51Z</time>
      </trkpt>
      <trkpt lat="45.90308" lon="2.76177">
        <ele>590.89</ele>
        <time>2015-03-25T13:12:05Z</time>
      </trkpt>
      <trkpt lat="45.90308" lon="2.76175">
        <ele>591.24</ele>
        <time>2015-03-25T13:12:06Z</time>
      </trkpt>
      <trkpt lat="45.9031" lon="2.76165">
        <ele>590.22</ele>
        <time>2015-03-25T13:12:13Z</time>
      </trkpt>
      <trkpt lat="45.90311" lon="2.76162">
        <ele>589.86</ele>
        <time>2015-03-25T13:12:15Z</time>
      </trkpt>
      <trkpt lat="45.90313" lon="2.76157">
        <ele>589.39</ele>
        <time>2015-03-25T13:12:19Z</time>
      </trkpt>
      <trkpt lat="45.90319" lon="2.76137">
        <ele>584.74</ele>
        <time>2015-03-25T13:12:34Z</time>
      </trkpt>
      <trkpt lat="45.90321" lon="2.76131">
        <ele>584.21</ele>
        <time>2015-03-25T13:12:38Z</time>
      </trkpt>
      <trkpt lat="45.90331" lon="2.76113">
        <ele>582.39</ele>
        <time>2015-03-25T13:12:52Z</time>
      </trkpt>
      <trkpt lat="45.9034" lon="2.76101">
        <ele>581</ele>
        <time>2015-03-25T13:13:04Z</time>
      </trkpt>
      <trkpt lat="45.90344" lon="2.76094">
        <ele>580.32</ele>
        <time>2015-03-25T13:13:09Z</time>
      </trkpt>
      <trkpt lat="45.90349" lon="2.76088">
        <ele>578.51</ele>
        <time>2015-03-25T13:13:15Z</time>
      </trkpt>
      <trkpt lat="45.90357" lon="2.76077">
        <ele>577.17</ele>
        <time>2015-03-25T13:13:25Z</time>
      </trkpt>
      <trkpt lat="45.9037" lon="2.76065">
        <ele>576.66</ele>
        <time>2015-03-25T13:13:38Z</time>
      </trkpt>
      <trkpt lat="45.90385" lon="2.76057">
        <ele>576.32</ele>
        <time>2015-03-25T13:13:52Z</time>
      </trkpt>
      <trkpt lat="45.90391" lon="2.76059">
        <ele>576.01</ele>
        <time>2015-03-25T13:13:57Z</time>
      </trkpt>
      <trkpt lat="45.90401" lon="2.76064">
        <ele>574.79</ele>
        <time>2015-03-25T13:14:10Z</time>
      </trkpt>
      <trkpt lat="45.90407" lon="2.76048">
        <ele>571.76</ele>
        <time>2015-03-25T13:14:27Z</time>
      </trkpt>
      <trkpt lat="45.90412" lon="2.76035">
        <ele>569.92</ele>
        <time>2015-03-25T13:14:48Z</time>
      </trkpt>
      <trkpt lat="45.90412" lon="2.76032">
        <ele>570.48</ele>
        <time>2015-03-25T13:15:29Z</time>
      </trkpt>
      <trkpt lat="45.90411" lon="2.76032">
        <ele>571.46</ele>
        <time>2015-03-25T13:16:07Z</time>
      </trkpt>
      <trkpt lat="45.90413" lon="2.76038">
        <ele>572.21</ele>
        <time>2015-03-25T13:16:28Z</time>
      </trkpt>
      <trkpt lat="45.90408" lon="2.76038">
        <ele>572.11</ele>
        <time>2015-03-25T13:16:56Z</time>
      </trkpt>
      <trkpt lat="45.90409" lon="2.76042">
        <ele>572.19</ele>
        <time>2015-03-25T13:17:22Z</time>
      </trkpt>
      <trkpt lat="45.90409" lon="2.76041">
        <ele>573.32</ele>
        <time>2015-03-25T13:17:48Z</time>
      </trkpt>
      <trkpt lat="45.90404" lon="2.7604">
        <ele>573.44</ele>
        <time>2015-03-25T13:18:13Z</time>
      </trkpt>
      <trkpt lat="45.90412" lon="2.7604">
        <ele>573.04</ele>
        <time>2015-03-25T13:18:39Z</time>
      </trkpt>
      <trkpt lat="45.90411" lon="2.76038">
        <ele>573.41</ele>
        <time>2015-03-25T13:18:49Z</time>
      </trkpt>
      <trkpt lat="45.90409" lon="2.7604">
        <ele>573.51</ele>
        <time>2015-03-25T13:19:16Z</time>
      </trkpt>
      <trkpt lat="45.90409" lon="2.76038">
        <ele>573.74</ele>
        <time>2015-03-25T13:19:42Z</time>
      </trkpt>
      <trkpt lat="45.90407" lon="2.76043">
        <ele>573.95</ele>
        <time>2015-03-25T13:20:11Z</time>
      </trkpt>
      <trkpt lat="45.9041" lon="2.76042">
        <ele>574.28</ele>
        <time>2015-03-25T13:20:34Z</time>
      </trkpt>
      <trkpt lat="45.90408" lon="2.76042">
        <ele>574.44</ele>
        <time>2015-03-25T13:21:09Z</time>
      </trkpt>
      <trkpt lat="45.90406" lon="2.76045">
        <ele>574.7</ele>
        <time>2015-03-25T13:21:39Z</time>
      </trkpt>
      <trkpt lat="45.90406" lon="2.76036">
        <ele>573.73</ele>
        <time>2015-03-25T13:22:05Z</time>
      </trkpt>
      <trkpt lat="45.90409" lon="2.76018">
        <ele>571.61</ele>
        <time>2015-03-25T13:22:17Z</time>
      </trkpt>
      <trkpt lat="45.90414" lon="2.75999">
        <ele>568.48</ele>
        <time>2015-03-25T13:22:32Z</time>
      </trkpt>
      <trkpt lat="45.90421" lon="2.75975">
        <ele>566.29</ele>
        <time>2015-03-25T13:22:51Z</time>
      </trkpt>
      <trkpt lat="45.9043" lon="2.75959">
        <ele>564.25</ele>
        <time>2015-03-25T13:23:06Z</time>
      </trkpt>
      <trkpt lat="45.90439" lon="2.75945">
        <ele>561.17</ele>
        <time>2015-03-25T13:23:21Z</time>
      </trkpt>
      <trkpt lat="45.90451" lon="2.75931">
        <ele>557.88</ele>
        <time>2015-03-25T13:23:36Z</time>
      </trkpt>
      <trkpt lat="45.90461" lon="2.7592">
        <ele>554.84</ele>
        <time>2015-03-25T13:23:47Z</time>
      </trkpt>
      <trkpt lat="45.90475" lon="2.75906">
        <ele>552.69</ele>
        <time>2015-03-25T13:24:04Z</time>
      </trkpt>
      <trkpt lat="45.90494" lon="2.75893">
        <ele>551.02</ele>
        <time>2015-03-25T13:24:23Z</time>
      </trkpt>
      <trkpt lat="45.90514" lon="2.75878">
        <ele>548.92</ele>
        <time>2015-03-25T13:24:41Z</time>
      </trkpt>
      <trkpt lat="45.9053" lon="2.75864">
        <ele>546.69</ele>
        <time>2015-03-25T13:24:59Z</time>
      </trkpt>
      <trkpt lat="45.90546" lon="2.7585">
        <ele>544.42</ele>
        <time>2015-03-25T13:25:17Z</time>
      </trkpt>
      <trkpt lat="45.90562" lon="2.75837">
        <ele>541.3</ele>
        <time>2015-03-25T13:25:32Z</time>
      </trkpt>
      <trkpt lat="45.90565" lon="2.75834">
        <ele>539.63</ele>
        <time>2015-03-25T13:25:35Z</time>
      </trkpt>
      <trkpt lat="45.9058" lon="2.75823">
        <ele>536.62</ele>
        <time>2015-03-25T13:25:50Z</time>
      </trkpt>
      <trkpt lat="45.90584" lon="2.75819">
        <ele>535.39</ele>
        <time>2015-03-25T13:25:54Z</time>
      </trkpt>
      <trkpt lat="45.90581" lon="2.75812">
        <ele>535.15</ele>
        <time>2015-03-25T13:26:02Z</time>
      </trkpt>
      <trkpt lat="45.90567" lon="2.75816">
        <ele>532.89</ele>
        <time>2015-03-25T13:26:15Z</time>
      </trkpt>
      <trkpt lat="45.90551" lon="2.7582">
        <ele>532.46</ele>
        <time>2015-03-25T13:26:29Z</time>
      </trkpt>
      <trkpt lat="45.90536" lon="2.75825">
        <ele>530.24</ele>
        <time>2015-03-25T13:26:42Z</time>
      </trkpt>
      <trkpt lat="45.90519" lon="2.75829">
        <ele>529.81</ele>
        <time>2015-03-25T13:26:56Z</time>
      </trkpt>
      <trkpt lat="45.90509" lon="2.75834">
        <ele>528.45</ele>
        <time>2015-03-25T13:27:05Z</time>
      </trkpt>
      <trkpt lat="45.90502" lon="2.75836">
        <ele>527.66</ele>
        <time>2015-03-25T13:27:11Z</time>
      </trkpt>
      <trkpt lat="45.90484" lon="2.75841">
        <ele>524.86</ele>
        <time>2015-03-25T13:27:28Z</time>
      </trkpt>
      <trkpt lat="45.90471" lon="2.75842">
        <ele>521.86</ele>
        <time>2015-03-25T13:27:38Z</time>
      </trkpt>
      <trkpt lat="45.90458" lon="2.7584">
        <ele>519.95</ele>
        <time>2015-03-25T13:27:49Z</time>
      </trkpt>
      <trkpt lat="45.9045" lon="2.75838">
        <ele>518.23</ele>
        <time>2015-03-25T13:27:55Z</time>
      </trkpt>
      <trkpt lat="45.90443" lon="2.75835">
        <ele>516.73</ele>
        <time>2015-03-25T13:28:01Z</time>
      </trkpt>
      <trkpt lat="45.9044" lon="2.7583">
        <ele>515.17</ele>
        <time>2015-03-25T13:28:05Z</time>
      </trkpt>
      <trkpt lat="45.90441" lon="2.75825">
        <ele>514.7</ele>
        <time>2015-03-25T13:28:08Z</time>
      </trkpt>
      <trkpt lat="45.90452" lon="2.75812">
        <ele>514.01</ele>
        <time>2015-03-25T13:28:21Z</time>
      </trkpt>
      <trkpt lat="45.90462" lon="2.75806">
        <ele>512.7</ele>
        <time>2015-03-25T13:28:30Z</time>
      </trkpt>
      <trkpt lat="45.90479" lon="2.75798">
        <ele>512.45</ele>
        <time>2015-03-25T13:28:44Z</time>
      </trkpt>
      <trkpt lat="45.90483" lon="2.75795">
        <ele>511.63</ele>
        <time>2015-03-25T13:28:47Z</time>
      </trkpt>
      <trkpt lat="45.905" lon="2.75783">
        <ele>510.06</ele>
        <time>2015-03-25T13:29:02Z</time>
      </trkpt>
      <trkpt lat="45.90511" lon="2.75772">
        <ele>509.87</ele>
        <time>2015-03-25T13:29:13Z</time>
      </trkpt>
      <trkpt lat="45.90518" lon="2.75764">
        <ele>508.52</ele>
        <time>2015-03-25T13:29:19Z</time>
      </trkpt>
      <trkpt lat="45.90531" lon="2.7575">
        <ele>509.29</ele>
        <time>2015-03-25T13:29:32Z</time>
      </trkpt>
      <trkpt lat="45.90542" lon="2.75733">
        <ele>508.3</ele>
        <time>2015-03-25T13:29:44Z</time>
      </trkpt>
      <trkpt lat="45.90544" lon="2.7573">
        <ele>507.83</ele>
        <time>2015-03-25T13:29:47Z</time>
      </trkpt>
      <trkpt lat="45.90564" lon="2.75716">
        <ele>507.08</ele>
        <time>2015-03-25T13:30:05Z</time>
      </trkpt>
      <trkpt lat="45.90577" lon="2.75705">
        <ele>505.98</ele>
        <time>2015-03-25T13:30:20Z</time>
      </trkpt>
      <trkpt lat="45.90579" lon="2.75705">
        <ele>505.78</ele>
        <time>2015-03-25T13:30:22Z</time>
      </trkpt>
      <trkpt lat="45.90601" lon="2.75702">
        <ele>503.84</ele>
        <time>2015-03-25T13:30:42Z</time>
      </trkpt>
      <trkpt lat="45.90616" lon="2.75694">
        <ele>505.17</ele>
        <time>2015-03-25T13:30:58Z</time>
      </trkpt>
      <trkpt lat="45.90618" lon="2.75691">
        <ele>503.73</ele>
        <time>2015-03-25T13:31:15Z</time>
      </trkpt>
      <trkpt lat="45.90618" lon="2.75692">
        <ele>504.77</ele>
        <time>2015-03-25T13:31:33Z</time>
      </trkpt>
      <trkpt lat="45.90617" lon="2.75692">
        <ele>505.05</ele>
        <time>2015-03-25T13:31:44Z</time>
      </trkpt>
    </trkseg>
  </trk>
</gpx>